EW2672 / D-ABHF 7700 Squawk Report (19th of September, 2019)

Aircraft A320 Reg No. D-ABHF Age 13 years old
Model A320 Jet engines 2 First flight 03-04-06
Registered 03-04-18 Rollout 03-06 Delivered 24-04-06
Construction No. 2749 Line No. N/A Series 214
ADSHEX 3C4906 Airline name Eurowings Owner N/A
Airfield based Dusseldorf~Nordrhein-Westfalen~D First tracked 2017-07-13 07:04:00

Flight history for D-ABHF

Route Flight No Date Playback
Tegel (TXL) - Stuttgart (STR) EW2021 2019-10-21 19:25:00
Stuttgart (STR) - Tegel (TXL) EW2020 2019-10-21 18:22:00
Tegel (TXL) - Stuttgart (STR) EW2019 2019-10-21 15:31:00
Stuttgart (STR) - Tegel (TXL) EW2018 2019-10-21 14:23:00
Hamburg (HAM) - Stuttgart (STR) EW2047 2019-10-21 11:29:00
Stuttgart (STR) - Hamburg (HAM) EW2046 2019-10-21 09:31:00
Tegel (TXL) - Stuttgart (STR) EW2003 2019-10-21 07:29:00
Stuttgart (STR) - Tegel (TXL) EW2002 2019-10-21 06:23:00
Budapest Ferenc Liszt (BUD) - Stuttgart (STR) EW2783 2019-10-20 11:49:00
Stuttgart (STR) - Budapest Ferenc Liszt (BUD) EW2782 2019-10-20 10:22:00
Cote D Azur (NCE) - Stuttgart (STR) EW2421 2019-10-20 07:16:00
Stuttgart (STR) - Cote D Azur (NCE) EW2420 2019-10-20 06:03:00
Larnaca International Airport (LCA) - Stuttgart (STR) EW2667 2019-10-19 20:47:00
Stuttgart (STR) - Larnaca International Airport (LCA) EW2666 2019-10-19 16:07:00
Son Sant Joan (PMI) - Stuttgart (STR) EW2591 2019-10-19 12:50:00
Stuttgart (STR) - Son Sant Joan (PMI) EW2590 2019-10-19 07:34:00
Hannover (HAJ) - Stuttgart (STR) EW2055 2019-10-19 05:37:00
Stuttgart (STR) - Hannover (HAJ) EW2054 2019-10-18 18:41:00
Hamburg (HAM) - Stuttgart (STR) EW2037 2019-10-18 17:03:00
Stuttgart (STR) - Hamburg (HAM) EW2036 2019-10-18 15:45:00
Time Lat Lon Altitude Heading Speed Vertical Rate
2019-09-19 18:07:12 GMT 35.338268 25.180178 0 306 0
2019-09-19 18:06:42 GMT 35.338268 25.180182 0 306 0
2019-09-19 18:06:21 GMT 35.338268 25.180178 0 306 0
2019-09-19 18:06:11 GMT 35.338268 25.180178 0 306 0
2019-09-19 18:05:59 GMT 35.338245 25.180222 0 306 3
2019-09-19 18:05:49 GMT 35.338177 25.180344 0 306 3
2019-09-19 18:05:36 GMT 35.338085 25.180492 0 306 3
We lost coverage of the aircraft here for a total of 52 minutes
2019-09-19 17:14:06 GMT 35.337513 25.180241 0 213 0 0
2019-09-19 17:13:51 GMT 35.337513 25.180256 0 213 0 0
2019-09-19 17:13:40 GMT 35.337513 25.180264 0 213 0 0
2019-09-19 17:13:30 GMT 35.337513 25.180248 0 213 0 0
2019-09-19 17:13:19 GMT 35.337513 25.180256 0 213 0 0
2019-09-19 17:13:08 GMT 35.337547 25.180279 0 213 2 0
2019-09-19 17:12:57 GMT 35.337627 25.180349 0 213 3 0
2019-09-19 17:12:47 GMT 35.337730 25.180449 0 202 4 0
2019-09-19 17:12:36 GMT 35.337921 25.180592 0 160 5 0
2019-09-19 17:12:25 GMT 35.338120 25.180449 0 126 8 0
2019-09-19 17:12:15 GMT 35.338467 25.179874 0 126 16 0
2019-09-19 17:12:03 GMT 35.338840 25.179049 0 95 14 0
2019-09-19 17:11:51 GMT 35.338909 25.178061 0 95 19 0
2019-09-19 17:11:40 GMT 35.338989 25.176958 0 95 15 0
2019-09-19 17:11:28 GMT 35.339050 25.176033 0 95 16 0
2019-09-19 17:11:17 GMT 35.339130 25.174908 0 95 18 0
2019-09-19 17:11:06 GMT 35.339195 25.173826 0 95 17 0
2019-09-19 17:10:54 GMT 35.339283 25.172747 0 95 16 0
2019-09-19 17:10:43 GMT 35.339344 25.171753 0 95 15 0
2019-09-19 17:10:31 GMT 35.339401 25.170965 0 104 9 0
2019-09-19 17:10:20 GMT 35.339493 25.170568 0 174 7 0
2019-09-19 17:10:09 GMT 35.339825 25.170752 0 244 13 0
2019-09-19 17:09:58 GMT 35.340111 25.171494 0 247 16 0
2019-09-19 17:09:47 GMT 35.340271 25.172609 0 270 24 0
2019-09-19 17:09:37 GMT 35.340191 25.174042 0 275 27 0
2019-09-19 17:09:26 GMT 35.340038 25.176077 0 275 46 0
2019-09-19 17:09:15 GMT 35.339790 25.179850 0 275 90 0
2019-09-19 17:09:05 GMT 35.339310 25.186386 25 275 135 -64
2019-09-19 17:08:55 GMT 35.338715 25.194454 150 276 137 -640
2019-09-19 17:08:44 GMT 35.338177 25.202696 275 276 137 -768
2019-09-19 17:08:34 GMT 35.337570 25.210585 400 276 138 -832
2019-09-19 17:08:22 GMT 35.336826 25.220226 550 276 139 -640
2019-09-19 17:08:13 GMT 35.336334 25.227299 625 275 137 -448
2019-09-19 17:08:02 GMT 35.335754 25.235537 725 275 134 -896
2019-09-19 17:07:51 GMT 35.335327 25.243607 875 273 134 -960
2019-09-19 17:07:41 GMT 35.334961 25.251331 1,050 274 134 -1216
2019-09-19 17:07:28 GMT 35.334366 25.261173 1,300 275 135 -1216
2019-09-19 17:07:20 GMT 35.333862 25.267353 1,475 276 134 -1088
2019-09-19 17:07:09 GMT 35.333313 25.275421 1,600 276 133 -768
2019-09-19 17:06:58 GMT 35.332729 25.283632 1,750 276 134 -832
2019-09-19 17:06:48 GMT 35.332077 25.291637 1,900 276 134 -832
2019-09-19 17:06:37 GMT 35.331425 25.299702 2,050 276 136 -832
2019-09-19 17:06:27 GMT 35.330750 25.307865 2,175 277 138 -896
2019-09-19 17:06:15 GMT 35.329891 25.316883 2,350 277 145 -1088
2019-09-19 17:06:02 GMT 35.328735 25.327892 2,550 278 158 -896
2019-09-19 17:05:54 GMT 35.327911 25.335274 2,675 277 173 -1344
2019-09-19 17:05:44 GMT 35.327377 25.345751 2,875 269 184 -1024
2019-09-19 17:05:33 GMT 35.328213 25.357031 2,975 261 185 -128
2019-09-19 17:05:23 GMT 35.331242 25.367491 2,975 245 186 0
2019-09-19 17:05:12 GMT 35.335011 25.377424 3,000 246 186 0
2019-09-19 17:05:04 GMT 35.338734 25.387651 3,000 247 185 0
2019-09-19 17:04:51 GMT 35.342148 25.397644 3,000 250 185 0
2019-09-19 17:04:41 GMT 35.345078 25.407772 3,000 254 184 0
2019-09-19 17:04:31 GMT 35.347393 25.417221 3,000 255 184 0
2019-09-19 17:04:22 GMT 35.350792 25.430311 3,000 247 187 64
2019-09-19 17:04:08 GMT 35.355240 25.439243 3,000 227 191 0
2019-09-19 17:04:00 GMT 35.361099 25.444965 3,000 204 196 0
2019-09-19 17:03:47 GMT 35.372669 25.447493 3,000 174 202 -64
2019-09-19 17:03:39 GMT 35.380306 25.445854 3,000 167 204 0
2019-09-19 17:03:36 GMT 35.382523 25.445251 3,000 167 205 0
2019-09-19 17:03:26 GMT 35.392090 25.442677 3,000 167 207 0
2019-09-19 17:03:18 GMT 35.400139 25.440420 3,000 167 207 0
2019-09-19 17:03:15 GMT 35.402466 25.439777 3,000 167 207 0
2019-09-19 17:03:08 GMT 35.409775 25.437733 3,000 167 208 0
2019-09-19 17:03:04 GMT 35.412689 25.436954 3,000 167 208 0
2019-09-19 17:02:57 GMT 35.422203 25.434343 2,975 167 208 0
2019-09-19 17:02:47 GMT 35.429977 25.432180 2,975 167 209 0
2019-09-19 17:02:44 GMT 35.432098 25.431576 2,975 167 209 0
2019-09-19 17:02:36 GMT 35.439754 25.429434 2,975 167 211 -64
2019-09-19 17:02:33 GMT 35.442268 25.428734 2,975 167 211 -64
2019-09-19 17:02:25 GMT 35.449715 25.426687 3,000 167 210 -256
2019-09-19 17:02:22 GMT 35.452789 25.425812 3,025 167 209 -320
2019-09-19 17:02:15 GMT 35.459290 25.424023 3,075 167 204 -576
2019-09-19 17:02:11 GMT 35.462631 25.423107 3,100 167 204 -768
2019-09-19 17:02:04 GMT 35.469315 25.421219 3,225 167 206 -704
2019-09-19 17:02:01 GMT 35.472248 25.420435 3,225 167 209 -64
2019-09-19 17:01:54 GMT 35.479275 25.418447 3,225 167 219 -576
2019-09-19 17:01:51 GMT 35.482361 25.417614 3,250 167 221 -768
2019-09-19 17:01:44 GMT 35.489891 25.415525 3,325 167 225 -640
2019-09-19 17:01:40 GMT 35.493347 25.414581 3,375 167 227 -512
2019-09-19 17:01:33 GMT 35.500877 25.412487 3,425 167 232 -768
2019-09-19 17:01:30 GMT 35.503922 25.411606 3,475 167 233 -1024
2019-09-19 17:01:23 GMT 35.511612 25.409489 3,625 167 237 -1792
2019-09-19 17:01:19 GMT 35.515320 25.408459 3,725 167 236 -1856
2019-09-19 17:01:11 GMT 35.523407 25.406235 3,950 167 237 -1728
2019-09-19 17:01:08 GMT 35.527222 25.405140 4,050 167 237 -1600
2019-09-19 17:01:02 GMT 35.534580 25.403137 4,225 167 239 -1536
2019-09-19 17:00:58 GMT 35.538437 25.402107 4,300 167 241 -1536
2019-09-19 17:00:51 GMT 35.545670 25.400105 4,450 167 243 -1408
2019-09-19 17:00:47 GMT 35.550034 25.398870 4,550 167 245 -1472
2019-09-19 17:00:40 GMT 35.557480 25.396843 4,675 167 249 -1280
2019-09-19 17:00:37 GMT 35.561462 25.395756 4,750 167 252 -1152
2019-09-19 17:00:30 GMT 35.569542 25.393496 4,900 167 254 -1472
2019-09-19 17:00:26 GMT 35.573410 25.392437 4,975 167 256 -1536
2019-09-19 17:00:19 GMT 35.581329 25.390205 5,125 167 258 -1152
2019-09-19 17:00:15 GMT 35.586456 25.388775 5,225 167 260 -1088
2019-09-19 17:00:04 GMT 35.600079 25.385021 5,400 167 262 -1152
2019-09-19 16:59:50 GMT 35.615936 25.380650 5,675 167 263 -1344
2019-09-19 16:59:43 GMT 35.624313 25.378304 5,825 167 264 -1216
2019-09-19 16:59:32 GMT 35.637909 25.374470 6,000 167 268 -704
2019-09-19 16:59:22 GMT 35.650360 25.370979 7,225 166 279 -1024
2019-09-19 16:59:11 GMT 35.664459 25.366974 6,300 166 283 -1344
2019-09-19 16:59:00 GMT 35.678005 25.363108 6,600 166 283 -1600
2019-09-19 16:58:49 GMT 35.692577 25.359016 6,875 167 283 -1664
2019-09-19 16:58:38 GMT 35.706264 25.355219 7,175 167 281 -1664
2019-09-19 16:58:30 GMT 35.717148 25.352211 7,400 167 280 -1920
2019-09-19 16:58:27 GMT 35.720123 25.351410 7,500 167 280 -1984
2019-09-19 16:58:23 GMT 35.724747 25.350094 7,600 167 280 -1920
2019-09-19 16:58:14 GMT 35.738434 25.346277 7,850 167 280 -1216
2019-09-19 16:58:03 GMT 35.750771 25.342772 8,025 167 285 -960
2019-09-19 16:57:53 GMT 35.765106 25.338739 8,175 167 290 -832
2019-09-19 16:57:42 GMT 35.778534 25.334930 8,325 167 295 -1216
2019-09-19 16:57:32 GMT 35.792713 25.330967 8,600 167 296 -1600
2019-09-19 16:57:21 GMT 35.806538 25.327051 8,850 167 298 -1536
2019-09-19 16:57:13 GMT 35.817581 25.323944 9,050 167 299 -1408
2019-09-19 16:57:10 GMT 35.820549 25.323135 9,075 167 300 -1344
2019-09-19 16:57:00 GMT 35.834888 25.319044 9,325 167 302 -1600
2019-09-19 16:56:52 GMT 35.846016 25.315889 9,525 167 303 -1472
2019-09-19 16:56:49 GMT 35.849319 25.314955 9,575 167 303 -1408
2019-09-19 16:56:39 GMT 35.863861 25.310841 9,850 167 305 -1728
2019-09-19 16:56:28 GMT 35.878555 25.306715 10,175 167 304 -1792
2019-09-19 16:56:22 GMT 35.888798 25.303850 10,350 166 305 -1280
2019-09-19 16:56:18 GMT 35.892986 25.302624 10,425 167 305 -1472
2019-09-19 16:56:07 GMT 35.907326 25.298592 10,625 167 308 -1024
2019-09-19 16:55:57 GMT 35.922318 25.294361 10,775 166 315 -768
2019-09-19 16:55:45 GMT 35.938385 25.289841 10,925 167 322 -832
2019-09-19 16:55:34 GMT 35.954807 25.285151 11,075 167 329 -896
2019-09-19 16:55:24 GMT 35.970448 25.280710 11,225 166 336 -960
2019-09-19 16:55:17 GMT 35.981918 25.277481 11,325 166 341 -896
2019-09-19 16:55:12 GMT 35.987732 25.275822 11,375 166 343 -832
2019-09-19 16:55:01 GMT 36.005081 25.270901 11,525 167 352 -1024
2019-09-19 16:54:57 GMT 36.014671 25.268147 11,650 167 357 -1728
2019-09-19 16:54:50 GMT 36.023575 25.265694 11,850 167 357 -2432
2019-09-19 16:54:40 GMT 36.039673 25.261250 12,250 167 356 -2368
2019-09-19 16:54:30 GMT 36.055965 25.256693 12,625 167 357 -2240
2019-09-19 16:54:19 GMT 36.073288 25.251846 12,975 167 360 -1984
2019-09-19 16:54:09 GMT 36.090134 25.247108 13,300 167 363 -1792
2019-09-19 16:53:57 GMT 36.109734 25.241556 13,650 166 366 -1984
2019-09-19 16:53:47 GMT 36.126663 25.236683 13,975 166 368 -2240
2019-09-19 16:53:37 GMT 36.143417 25.231934 14,400 166 368 -2944
2019-09-19 16:53:26 GMT 36.160492 25.227070 14,925 166 366 -3008
2019-09-19 16:53:15 GMT 36.178768 25.221863 15,425 166 372 -3328
2019-09-19 16:53:03 GMT 36.199112 25.216019 16,125 166 369 -4544
2019-09-19 16:52:53 GMT 36.215881 25.211163 16,900 166 365 -4032
2019-09-19 16:52:48 GMT 36.224213 25.208759 17,225 166 367 -3008
2019-09-19 16:52:42 GMT 36.234924 25.205612 17,525 166 369 -2944
2019-09-19 16:52:38 GMT 36.240875 25.203724 17,700 164 372 -2816
2019-09-19 16:52:33 GMT 36.248886 25.200920 17,875 161 375 -2688
2019-09-19 16:52:30 GMT 36.253860 25.198837 18,000 160 377 -2560
2019-09-19 16:52:21 GMT 36.269440 25.190449 19,025 152 382 -2432
2019-09-19 16:52:12 GMT 36.299294 25.170321 19,025 151 388 -1920
2019-09-19 16:52:01 GMT 36.299294 25.170321 19,025 151 386 -1856
2019-09-19 16:51:58 GMT 36.304138 25.167046 19,200 151 388 -1920
2019-09-19 16:51:55 GMT 36.316269 25.158806 19,300 151 388 -1984
2019-09-19 16:51:51 GMT 36.316269 25.158806 19,350 151 389 -2048
2019-09-19 16:51:47 GMT 36.321964 25.154951 19,500 151 390 -2112
2019-09-19 16:51:44 GMT 36.328064 25.150803 19,500 151 390 -2112
2019-09-19 16:51:40 GMT 36.333229 25.147297 19,725 151 392 -2048
2019-09-19 16:51:35 GMT 36.341331 25.141804 19,925 151 393 -2112
2019-09-19 16:51:30 GMT 36.349594 25.136204 20,050 151 394 -2240
2019-09-19 16:51:24 GMT 36.358887 25.129967 20,275 151 394 -2368
2019-09-19 16:51:19 GMT 36.366886 25.124563 20,475 151 394 -2304
2019-09-19 16:51:14 GMT 36.374660 25.119246 20,600 151 395 -2176
2019-09-19 16:51:09 GMT 36.383461 25.113228 20,800 151 397 -1728
2019-09-19 16:51:03 GMT 36.393143 25.106623 20,950 151 401 -1088
2019-09-19 16:50:58 GMT 36.400406 25.101656 21,025 151 403 -960
2019-09-19 16:50:52 GMT 36.410522 25.094719 21,350 151 409 -1280
2019-09-19 16:50:47 GMT 36.418003 25.089619 21,225 151 411 -1856
2019-09-19 16:50:42 GMT 36.428467 25.082474 21,450 151 413 -1984
2019-09-19 16:50:37 GMT 36.435883 25.077381 21,575 151 414 -1920
2019-09-19 16:50:30 GMT 36.447655 25.069340 21,775 151 418 -1856
2019-09-19 16:50:26 GMT 36.453552 25.065308 21,875 151 419 -1920
2019-09-19 16:50:22 GMT 36.472420 25.052393 22,200 151 421 -1984
2019-09-19 16:50:15 GMT 36.472420 25.052393 22,200 150 424 -2048
2019-09-19 16:50:09 GMT 36.484406 25.044136 22,400 151 425 -2240
2019-09-19 16:50:05 GMT 36.490036 25.040245 22,600 150 426 -2176
2019-09-19 16:50:00 GMT 36.500519 25.033092 22,775 151 427 -1984
2019-09-19 16:49:55 GMT 36.507935 25.028000 22,925 151 429 -1792
2019-09-19 16:49:49 GMT 36.519424 25.020103 23,075 151 431 -2112
2019-09-19 16:49:43 GMT 36.527912 25.014292 23,275 151 434 -2496
2019-09-19 16:49:40 GMT 36.535080 25.009346 23,475 151 434 -2624
2019-09-19 16:49:34 GMT 36.544205 25.003130 23,850 151 435 -3136
2019-09-19 16:49:30 GMT 36.552166 24.997696 23,950 151 434 -3584
2019-09-19 16:49:23 GMT 36.563850 24.989689 24,375 151 434 -3840
2019-09-19 16:49:19 GMT 36.571392 24.984547 24,625 151 435 -3776
2019-09-19 16:49:12 GMT 36.583008 24.976559 25,025 151 438 -3520
2019-09-19 16:49:09 GMT 36.589737 24.971981 25,200 151 439 -3456
2019-09-19 16:49:05 GMT 36.597244 24.966774 25,475 151 441 -3328
2019-09-19 16:49:01 GMT 36.602280 24.963341 25,575 151 443 -3328
2019-09-19 16:48:58 GMT 36.608818 24.958893 25,800 151 446 -3456
2019-09-19 16:48:55 GMT 36.614964 24.954685 25,975 150 453 -3520
2019-09-19 16:48:51 GMT 36.621048 24.950466 26,200 150 449 -3520
2019-09-19 16:48:48 GMT 36.628883 24.945101 26,425 150 450 -3456
2019-09-19 16:48:40 GMT 36.640549 24.937019 26,825 150 454 -3712
2019-09-19 16:48:34 GMT 36.653183 24.928265 27,175 150 456 -3712
2019-09-19 16:48:29 GMT 36.660416 24.923286 27,425 150 457 -3776
2019-09-19 16:48:26 GMT 36.667664 24.918337 27,675 150 459 -4032
2019-09-19 16:48:23 GMT 36.673370 24.914360 27,875 150 459 -4928
2019-09-19 16:48:18 GMT 36.680695 24.909336 28,175 150 459 -4672
2019-09-19 16:48:15 GMT 36.687958 24.904310 28,475 150 458 -5120
2019-09-19 16:48:08 GMT 36.700241 24.895821 29,075 150 456 -5184
2019-09-19 16:48:03 GMT 36.708721 24.889994 29,400 150 456 -4672
2019-09-19 16:47:58 GMT 36.718277 24.883404 29,725 150 457 -4032
2019-09-19 16:47:51 GMT 36.731346 24.874392 30,250 150 457 -3968
2019-09-19 16:47:47 GMT 36.740330 24.868137 30,375 150 458 -3584
2019-09-19 16:47:44 GMT 36.746243 24.864046 30,700 150 462 -3648
2019-09-19 16:47:37 GMT 36.758018 24.855925 31,100 150 462 -4416
2019-09-19 16:47:31 GMT 36.768120 24.848911 31,400 150 461 -5184
2019-09-19 16:47:26 GMT 36.778736 24.841606 32,000 150 458 -5376
2019-09-19 16:47:20 GMT 36.788956 24.834538 32,325 150 457 -4352
2019-09-19 16:47:16 GMT 36.797543 24.828634 32,725 151 458 -3968
2019-09-19 16:47:10 GMT 36.808273 24.821205 32,975 151 459 -3968
2019-09-19 16:47:07 GMT 36.816536 24.815544 33,375 150 459 -3648
2019-09-19 16:47:04 GMT 36.819561 24.813440 33,525 150 459 -3840
2019-09-19 16:46:58 GMT 36.831390 24.805298 33,900 150 459 -3584
2019-09-19 16:46:52 GMT 36.841579 24.798246 34,200 150 461 -3456
2019-09-19 16:46:49 GMT 36.846470 24.794857 34,375 150 461 -2944
2019-09-19 16:46:46 GMT 36.851807 24.791176 34,500 150 461 -2432
2019-09-19 16:46:43 GMT 36.859131 24.786112 34,675 150 463 -1728
2019-09-19 16:46:39 GMT 36.865322 24.781813 34,800 150 463 -1600
2019-09-19 16:46:35 GMT 36.873608 24.776140 34,875 150 464 -960
2019-09-19 16:46:31 GMT 36.881332 24.770781 34,925 150 465 -640
2019-09-19 16:46:25 GMT 36.893600 24.762306 35,000 150 465 -640
2019-09-19 16:46:22 GMT 36.898422 24.758944 35,050 151 464 -640
2019-09-19 16:46:19 GMT 36.903122 24.755720 35,075 151 464 -576
2019-09-19 16:46:14 GMT 36.913456 24.748615 35,125 150 464 -1024
2019-09-19 16:46:11 GMT 36.918999 24.744793 35,150 151 464 -960
2019-09-19 16:46:06 GMT 36.927238 24.739061 35,225 150 464 -1024
2019-09-19 16:46:00 GMT 36.938736 24.731119 35,350 150 464 -960
2019-09-19 16:45:57 GMT 36.946323 24.725866 35,400 150 463 -960
2019-09-19 16:45:53 GMT 36.953724 24.720732 35,475 150 463 -960
2019-09-19 16:45:50 GMT 36.957779 24.717894 35,500 150 463 -896
2019-09-19 16:45:46 GMT 36.966293 24.712013 35,550 150 462 -960
2019-09-19 16:45:43 GMT 36.971043 24.708731 35,600 150 462 -1024
2019-09-19 16:45:38 GMT 36.980305 24.702282 35,700 150 462 -1024
2019-09-19 16:45:35 GMT 36.985939 24.698400 35,750 150 461 -1024
2019-09-19 16:45:32 GMT 36.990509 24.695221 35,775 150 461 -1024
2019-09-19 16:45:29 GMT 36.996918 24.690779 35,850 150 461 -1024
2019-09-19 16:45:25 GMT 37.005074 24.685085 35,900 150 460 -1024
2019-09-19 16:45:22 GMT 37.010101 24.681622 35,950 150 460 -1024
2019-09-19 16:45:17 GMT 37.018524 24.675760 36,025 150 460 -960
2019-09-19 16:45:14 GMT 37.025986 24.670618 36,100 150 459 -960
2019-09-19 16:45:11 GMT 37.030792 24.667229 36,125 150 459 -960
2019-09-19 16:45:08 GMT 37.036469 24.663313 36,200 150 459 -896
2019-09-19 16:45:04 GMT 37.046127 24.656593 36,250 150 459 -896
2019-09-19 16:44:55 GMT 37.059353 24.647348 36,400 150 459 -832
2019-09-19 16:44:51 GMT 37.074921 24.636549 36,750 150 461 -960
2019-09-19 16:44:47 GMT 37.074921 24.636549 36,500 150 459 -896
2019-09-19 16:44:43 GMT 37.085266 24.629301 36,575 150 459 -896
2019-09-19 16:44:36 GMT 37.095886 24.621881 36,650 150 460 -960
2019-09-19 16:44:31 GMT 37.104034 24.616213 36,700 150 461 -960
2019-09-19 16:44:26 GMT 37.114796 24.608719 36,850 150 462 -960
2019-09-19 16:44:22 GMT 37.123920 24.602388 36,900 150 463 -896
2019-09-19 16:44:13 GMT 37.137955 24.592604 37,000 150 464 -640
2019-09-19 16:44:09 GMT 37.145370 24.587461 37,025 150 464 -192
2019-09-19 16:44:03 GMT 37.157547 24.578930 37,025 150 464 0
2019-09-19 16:43:59 GMT 37.165863 24.573132 37,025 150 464 0
2019-09-19 16:43:52 GMT 37.179428 24.563677 37,025 150 464 0
2019-09-19 16:43:49 GMT 37.183041 24.561190 37,025 150 464 0
2019-09-19 16:43:42 GMT 37.196411 24.551872 37,025 150 464 0
2019-09-19 16:43:39 GMT 37.204102 24.546495 37,025 150 463 64
2019-09-19 16:43:33 GMT 37.213161 24.540173 37,025 150 463 64
2019-09-19 16:43:30 GMT 37.220810 24.534866 37,025 150 463 64
2019-09-19 16:43:26 GMT 37.226532 24.530893 37,025 150 463 64
2019-09-19 16:43:23 GMT 37.232105 24.526978 37,025 150 464 64
2019-09-19 16:43:19 GMT 37.240219 24.521309 37,000 150 464 0
2019-09-19 16:43:16 GMT 37.246773 24.516708 37,025 150 464 0
2019-09-19 16:43:12 GMT 37.252964 24.512348 37,000 150 464 0
2019-09-19 16:43:09 GMT 37.260223 24.507275 37,025 150 464 0
2019-09-19 16:43:06 GMT 37.271667 24.499220 37,025 150 464 0
2019-09-19 16:43:03 GMT 37.271667 24.499220 37,025 150 464 0
2019-09-19 16:42:58 GMT 37.279907 24.493435 37,025 150 463 64
2019-09-19 16:42:54 GMT 37.299271 24.479877 37,025 150 462 0
2019-09-19 16:42:47 GMT 37.299271 24.479877 37,025 150 463 64
2019-09-19 16:42:43 GMT 37.308640 24.473301 37,025 150 462 0
2019-09-19 16:42:37 GMT 37.318680 24.466202 37,025 150 462 0
2019-09-19 16:42:32 GMT 37.327469 24.460066 37,025 150 462 0
2019-09-19 16:42:26 GMT 37.338226 24.452528 37,025 150 462 0
2019-09-19 16:42:21 GMT 37.349991 24.444229 37,025 150 463 0
2019-09-19 16:42:16 GMT 37.357361 24.439087 37,025 150 462 0
2019-09-19 16:42:09 GMT 37.370682 24.429678 37,025 150 462 64
2019-09-19 16:42:05 GMT 37.377258 24.424995 37,025 150 462 64
2019-09-19 16:42:01 GMT 37.391224 24.415144 37,025 150 462 64
2019-09-19 16:41:58 GMT 37.391224 24.415144 37,025 150 462 0
2019-09-19 16:41:55 GMT 37.397648 24.410606 37,025 150 462 0
2019-09-19 16:41:48 GMT 37.409611 24.402187 37,025 150 462 0
2019-09-19 16:41:44 GMT 37.417374 24.396719 37,025 150 462 0
2019-09-19 16:41:41 GMT 37.422913 24.392862 37,025 150 462 0
2019-09-19 16:41:37 GMT 37.430328 24.387617 37,025 150 462 0
2019-09-19 16:41:34 GMT 37.437218 24.382782 37,025 150 462 0
2019-09-19 16:41:29 GMT 37.445709 24.376850 37,025 150 462 64
2019-09-19 16:41:22 GMT 37.457653 24.368273 37,025 149 463 0
2019-09-19 16:41:18 GMT 37.465149 24.362659 37,025 148 463 0
2019-09-19 16:41:15 GMT 37.471573 24.357704 37,025 147 464 0
2019-09-19 16:41:12 GMT 37.481907 24.349344 37,025 145 465 0
2019-09-19 16:41:09 GMT 37.487640 24.344477 37,025 145 465 0
2019-09-19 16:41:06 GMT 37.487640 24.344477 37,025 145 465 0
2019-09-19 16:41:03 GMT 37.494736 24.338282 37,025 144 466 0
2019-09-19 16:41:00 GMT 37.497345 24.335943 37,025 144 466 0
2019-09-19 16:40:57 GMT 37.503571 24.330276 37,025 143 467 0
2019-09-19 16:40:50 GMT 37.515518 24.318834 37,025 141 467 64
2019-09-19 16:40:47 GMT 37.522156 24.312277 37,025 140 468 64
2019-09-19 16:40:39 GMT 37.532883 24.301041 37,000 138 469 0
2019-09-19 16:40:36 GMT 37.540237 24.293039 37,025 137 469 0
2019-09-19 16:40:31 GMT 37.548290 24.283846 37,025 136 471 0
2019-09-19 16:40:27 GMT 37.553101 24.278149 37,025 136 471 0
2019-09-19 16:40:24 GMT 37.557835 24.272442 37,025 133 472 0
2019-09-19 16:40:17 GMT 37.568253 24.259274 37,025 133 472 0
2019-09-19 16:40:14 GMT 37.574127 24.251543 37,025 132 473 0
2019-09-19 16:40:07 GMT 37.583817 24.238176 37,025 131 474 0
2019-09-19 16:40:02 GMT 37.590500 24.228594 37,025 129 474 0
2019-09-19 16:39:59 GMT 37.596054 24.220257 37,025 129 475 0
2019-09-19 16:39:56 GMT 37.599518 24.214918 37,025 128 475 -64
2019-09-19 16:39:51 GMT 37.605690 24.205151 37,025 128 475 0
2019-09-19 16:39:48 GMT 37.609634 24.198673 37,025 126 476 0
2019-09-19 16:39:45 GMT 37.614166 24.191017 37,025 126 476 0
2019-09-19 16:39:42 GMT 37.618011 24.184357 37,025 124 478 0
2019-09-19 16:39:38 GMT 37.623798 24.173983 37,025 124 478 0
2019-09-19 16:39:34 GMT 37.627617 24.166996 37,025 124 478 0
2019-09-19 16:39:31 GMT 37.633118 24.156715 37,025 123 478 0
2019-09-19 16:39:27 GMT 37.636505 24.150345 37,025 123 478 0
2019-09-19 16:39:24 GMT 37.640137 24.143591 37,025 123 478 0
2019-09-19 16:39:20 GMT 37.645294 24.133924 37,025 123 478 0
2019-09-19 16:39:17 GMT 37.653168 24.119198 37,025 123 479 0
2019-09-19 16:39:13 GMT 37.653168 24.119198 37,025 123 479 0
2019-09-19 16:39:10 GMT 37.657501 24.111050 37,025 123 479 0
2019-09-19 16:39:05 GMT 37.664623 24.097734 37,025 123 479 0
2019-09-19 16:39:02 GMT 37.667175 24.092958 37,025 123 479 64
2019-09-19 16:38:59 GMT 37.671661 24.084543 37,025 123 479 64
2019-09-19 16:38:55 GMT 37.676029 24.076300 37,025 123 479 0
2019-09-19 16:38:52 GMT 37.679718 24.069408 37,025 123 479 0
2019-09-19 16:38:49 GMT 37.683525 24.062328 37,025 123 479 0
2019-09-19 16:38:46 GMT 37.688553 24.052872 37,025 123 479 64
2019-09-19 16:38:42 GMT 37.697617 24.035807 37,025 123 479 0
2019-09-19 16:38:38 GMT 37.697617 24.035807 37,025 123 479 0
2019-09-19 16:38:34 GMT 37.701874 24.027802 37,025 123 479 0
2019-09-19 16:38:31 GMT 37.705452 24.021130 37,025 123 479 0
2019-09-19 16:38:28 GMT 37.709827 24.012890 37,025 123 479 0
2019-09-19 16:38:25 GMT 37.714203 24.004709 37,025 123 479 0
2019-09-19 16:38:22 GMT 37.716064 24.001245 37,025 123 479 0
2019-09-19 16:38:16 GMT 37.724075 23.986193 37,025 123 480 0
2019-09-19 16:38:12 GMT 37.729477 23.976084 37,025 123 480 64
2019-09-19 16:38:08 GMT 37.733551 23.968370 37,025 123 480 0
2019-09-19 16:38:05 GMT 37.737759 23.960464 37,025 123 480 64
2019-09-19 16:38:02 GMT 37.742088 23.952286 37,000 123 480 64
2019-09-19 16:37:59 GMT 37.744720 23.947390 37,000 123 480 64
2019-09-19 16:37:55 GMT 37.751175 23.935234 37,000 123 480 64
2019-09-19 16:37:52 GMT 37.753418 23.930969 37,000 123 480 0
2019-09-19 16:37:49 GMT 37.757587 23.923088 37,000 123 480 64
2019-09-19 16:37:41 GMT 37.767151 23.905140 37,000 123 480 0
2019-09-19 16:37:38 GMT 37.770672 23.898548 37,000 123 480 0
2019-09-19 16:37:31 GMT 37.779922 23.881180 37,000 123 480 0
2019-09-19 16:37:28 GMT 37.783890 23.873650 37,000 123 480 0
2019-09-19 16:37:23 GMT 37.789856 23.862480 37,000 123 480 0
2019-09-19 16:37:20 GMT 37.793152 23.856285 37,000 123 480 0
2019-09-19 16:37:17 GMT 37.797043 23.848982 37,025 123 480 -64
2019-09-19 16:37:10 GMT 37.806145 23.831795 37,025 123 480 64
2019-09-19 16:37:07 GMT 37.809952 23.824671 37,025 123 480 0
2019-09-19 16:37:01 GMT 37.817322 23.810762 37,025 123 479 0
2019-09-19 16:36:58 GMT 37.820389 23.804977 37,025 123 479 0
2019-09-19 16:36:55 GMT 37.823959 23.798199 37,025 123 480 0
2019-09-19 16:36:52 GMT 37.829681 23.787388 37,025 123 480 0
2019-09-19 16:36:49 GMT 37.831654 23.783669 37,025 123 480 0
2019-09-19 16:36:45 GMT 37.837101 23.773338 37,025 123 480 0
2019-09-19 16:36:40 GMT 37.842129 23.763786 37,025 123 480 64
2019-09-19 16:36:37 GMT 37.846458 23.755606 37,025 123 480 64
2019-09-19 16:36:34 GMT 37.849594 23.749754 37,025 123 480 0
2019-09-19 16:36:28 GMT 37.857468 23.734793 37,025 123 480 0
2019-09-19 16:36:24 GMT 37.862286 23.725693 37,025 123 480 64
2019-09-19 16:36:21 GMT 37.865845 23.718899 37,025 123 480 0
2019-09-19 16:36:17 GMT 37.870991 23.709152 37,025 123 480 0
2019-09-19 16:36:13 GMT 37.876389 23.699001 37,025 123 480 64
2019-09-19 16:36:07 GMT 37.883148 23.686172 37,025 123 481 64
2019-09-19 16:36:02 GMT 37.889565 23.673985 37,025 123 481 0
2019-09-19 16:35:57 GMT 37.899170 23.655727 37,025 123 481 0
2019-09-19 16:35:54 GMT 37.899170 23.655727 37,025 123 481 0
2019-09-19 16:35:51 GMT 37.902557 23.649298 37,025 123 481 0
2019-09-19 16:35:47 GMT 37.911816 23.631710 37,025 123 481 64
2019-09-19 16:35:41 GMT 37.916054 23.623590 37,025 123 481 0
2019-09-19 16:35:36 GMT 37.923550 23.609322 37,025 123 481 64
2019-09-19 16:35:33 GMT 37.925411 23.605858 37,000 123 481 64
2019-09-19 16:35:30 GMT 37.928970 23.599043 37,000 123 481 64
2019-09-19 16:35:27 GMT 37.934486 23.588602 37,000 123 481 0
2019-09-19 16:35:24 GMT 37.936981 23.583849 37,000 123 482 0
2019-09-19 16:35:19 GMT 37.942749 23.572920 37,025 123 482 0
2019-09-19 16:35:16 GMT 37.947521 23.563824 37,025 123 482 0
2019-09-19 16:35:13 GMT 37.950035 23.559046 37,025 123 482 0
2019-09-19 16:35:08 GMT 37.955795 23.548025 37,025 123 482 64
2019-09-19 16:35:05 GMT 37.960182 23.539640 37,025 123 482 64
2019-09-19 16:35:01 GMT 37.964279 23.531879 37,025 123 482 64
2019-09-19 16:34:57 GMT 37.969357 23.522205 37,025 123 482 0
2019-09-19 16:34:54 GMT 37.973637 23.514027 37,025 123 482 0
2019-09-19 16:34:51 GMT 37.978500 23.504723 37,025 123 482 0
2019-09-19 16:34:46 GMT 37.982712 23.496717 37,025 123 482 0
2019-09-19 16:34:43 GMT 37.986485 23.489487 37,025 123 482 -64
2019-09-19 16:34:40 GMT 37.990536 23.481844 37,025 123 482 -64
2019-09-19 16:34:37 GMT 37.998962 23.465662 37,025 123 482 -64
2019-09-19 16:34:34 GMT 38.002167 23.459551 37,025 123 482 -64
2019-09-19 16:34:31 GMT 38.002167 23.459551 37,025 123 482 -64
2019-09-19 16:34:27 GMT 38.013115 23.438675 37,050 123 482 -64
2019-09-19 16:34:23 GMT 38.013115 23.438675 37,050 123 482 -64
2019-09-19 16:34:20 GMT 38.015022 23.434973 37,050 123 482 -64
2019-09-19 16:34:14 GMT 38.024612 23.416761 37,050 123 482 0
2019-09-19 16:34:10 GMT 38.027870 23.410551 37,050 123 483 64
2019-09-19 16:34:02 GMT 38.041260 23.384867 37,025 123 484 64
2019-09-19 16:33:54 GMT 38.047119 23.373648 37,025 123 484 64
2019-09-19 16:33:51 GMT 38.055038 23.358511 37,025 123 485 64
2019-09-19 16:33:44 GMT 38.060131 23.348755 37,025 123 485 64
2019-09-19 16:33:41 GMT 38.067581 23.334423 37,000 123 485 64
2019-09-19 16:33:38 GMT 38.067581 23.334423 37,000 123 485 64
2019-09-19 16:33:31 GMT 38.077469 23.315384 37,000 123 485 0
2019-09-19 16:33:27 GMT 38.081223 23.308254 37,000 123 486 0
2019-09-19 16:33:20 GMT 38.093399 23.284880 37,025 123 485 -64
2019-09-19 16:33:17 GMT 38.093399 23.284880 37,025 123 485 -64
2019-09-19 16:33:11 GMT 38.102215 23.267967 37,025 123 485 0
2019-09-19 16:33:06 GMT 38.106537 23.259750 37,025 123 485 0
2019-09-19 16:32:59 GMT 38.116653 23.240292 37,025 123 485 -64
2019-09-19 16:32:55 GMT 38.120361 23.233162 37,025 123 485 -64
2019-09-19 16:32:48 GMT 38.129772 23.215008 37,050 123 485 -64
2019-09-19 16:32:44 GMT 38.133965 23.206945 37,025 123 485 0
2019-09-19 16:32:37 GMT 38.142948 23.189571 37,050 123 486 0
2019-09-19 16:32:34 GMT 38.146347 23.183002 37,025 123 486 0
2019-09-19 16:32:26 GMT 38.156868 23.162703 37,050 123 486 0
2019-09-19 16:32:23 GMT 38.160049 23.156609 37,050 123 486 0
2019-09-19 16:32:16 GMT 38.169670 23.137983 37,050 123 486 0
2019-09-19 16:32:11 GMT 38.174652 23.128441 37,050 123 486 -64
2019-09-19 16:32:08 GMT 38.180004 23.118040 37,050 123 486 -64
2019-09-19 16:32:05 GMT 38.182434 23.113363 37,050 123 486 -128
2019-09-19 16:32:01 GMT 38.186462 23.105593 37,075 123 486 -64
2019-09-19 16:31:55 GMT 38.195526 23.088060 37,075 123 486 0
2019-09-19 16:31:52 GMT 38.198547 23.082275 37,075 123 486 0
2019-09-19 16:31:47 GMT 38.209351 23.061472 37,050 123 486 0
2019-09-19 16:31:44 GMT 38.209351 23.061472 37,075 123 487 0
2019-09-19 16:31:33 GMT 38.225510 23.030207 37,075 123 487 64
2019-09-19 16:31:30 GMT 38.225510 23.030207 37,050 123 487 0
2019-09-19 16:31:23 GMT 38.237354 23.007282 37,050 123 487 64
2019-09-19 16:31:20 GMT 38.237354 23.007282 37,050 123 487 64
2019-09-19 16:31:16 GMT 38.248260 22.986145 37,050 123 487 64
2019-09-19 16:31:12 GMT 38.248260 22.986145 37,050 123 487 64
2019-09-19 16:31:07 GMT 38.253204 22.976561 37,050 123 487 64
2019-09-19 16:31:04 GMT 38.257690 22.967796 37,050 123 488 0
2019-09-19 16:31:01 GMT 38.261948 22.959614 37,050 123 488 0
2019-09-19 16:30:57 GMT 38.266357 22.951036 37,050 123 488 0
2019-09-19 16:30:51 GMT 38.274506 22.935213 37,050 123 487 64
2019-09-19 16:30:46 GMT 38.279343 22.925837 37,050 123 487 64
2019-09-19 16:30:42 GMT 38.289871 22.905384 37,050 123 486 128
2019-09-19 16:30:38 GMT 38.289871 22.905384 37,025 123 486 128
2019-09-19 16:30:35 GMT 38.293079 22.899151 37,025 123 486 128
2019-09-19 16:30:32 GMT 38.297131 22.891329 37,025 123 486 128
2019-09-19 16:30:28 GMT 38.302113 22.881655 37,025 123 486 128
2019-09-19 16:30:24 GMT 38.306625 22.872833 37,000 123 486 64
2019-09-19 16:30:21 GMT 38.310242 22.865822 37,000 123 486 64
2019-09-19 16:30:17 GMT 38.315842 22.854965 37,000 123 486 64
2019-09-19 16:30:11 GMT 38.322189 22.842564 37,000 123 485 0
2019-09-19 16:30:05 GMT 38.330555 22.826366 37,000 123 484 0
2019-09-19 16:30:01 GMT 38.338886 22.810064 37,000 123 484 0
2019-09-19 16:29:55 GMT 38.342659 22.802780 37,000 123 483 64
2019-09-19 16:29:50 GMT 38.348618 22.791197 37,000 123 483 64
2019-09-19 16:29:47 GMT 38.353039 22.782598 37,000 123 483 64
2019-09-19 16:29:43 GMT 38.356567 22.775652 37,000 123 483 64
2019-09-19 16:29:40 GMT 38.360859 22.767374 37,000 123 483 64
2019-09-19 16:29:33 GMT 38.369659 22.750174 37,000 123 483 64
2019-09-19 16:29:27 GMT 38.375885 22.738075 37,000 123 482 0
2019-09-19 16:29:23 GMT 38.380878 22.728384 37,000 123 482 0
2019-09-19 16:29:20 GMT 38.388653 22.713219 37,000 123 482 64
2019-09-19 16:29:17 GMT 38.388653 22.713219 37,000 123 482 64
2019-09-19 16:29:14 GMT 38.392422 22.705814 37,000 123 482 64
2019-09-19 16:29:11 GMT 38.396027 22.698864 37,000 123 482 64
2019-09-19 16:29:07 GMT 38.400238 22.690624 36,975 122 481 64
2019-09-19 16:29:03 GMT 38.405548 22.680164 36,975 122 481 64
2019-09-19 16:28:57 GMT 38.412998 22.665527 36,975 122 481 0
2019-09-19 16:28:54 GMT 38.417908 22.655958 37,000 122 481 0
2019-09-19 16:28:50 GMT 38.422775 22.646423 37,000 123 480 -64
2019-09-19 16:28:46 GMT 38.426590 22.638916 37,000 123 480 -64
2019-09-19 16:28:43 GMT 38.430130 22.632015 37,000 122 480 -128
2019-09-19 16:28:39 GMT 38.435989 22.620491 37,025 122 480 -128
2019-09-19 16:28:35 GMT 38.439743 22.613148 37,025 122 479 -64
2019-09-19 16:28:31 GMT 38.444092 22.604609 37,025 122 479 -64
2019-09-19 16:28:27 GMT 38.449448 22.594177 37,025 122 479 0
2019-09-19 16:28:24 GMT 38.452942 22.587341 37,025 122 479 0
2019-09-19 16:28:21 GMT 38.456543 22.580309 37,025 122 479 0
2019-09-19 16:28:17 GMT 38.461166 22.571173 37,025 122 478 64
2019-09-19 16:28:13 GMT 38.466339 22.561022 37,025 122 478 64
2019-09-19 16:28:10 GMT 38.469498 22.554873 37,025 122 478 64
2019-09-19 16:28:06 GMT 38.476215 22.541626 37,025 122 478 64
2019-09-19 16:28:02 GMT 38.479614 22.534912 37,000 122 478 64
2019-09-19 16:27:59 GMT 38.482548 22.529114 37,025 122 479 64
2019-09-19 16:27:53 GMT 38.490417 22.513674 37,025 122 480 0
2019-09-19 16:27:49 GMT 38.494419 22.505798 37,000 122 480 0
2019-09-19 16:27:45 GMT 38.499958 22.494934 37,025 122 479 0
2019-09-19 16:27:39 GMT 38.507309 22.480474 37,025 122 480 0
2019-09-19 16:27:32 GMT 38.516052 22.463280 37,025 122 479 0
2019-09-19 16:27:28 GMT 38.520069 22.455444 37,025 122 479 0
2019-09-19 16:27:21 GMT 38.529053 22.437666 37,025 122 479 64
2019-09-19 16:27:18 GMT 38.532822 22.430176 37,025 122 479 0
2019-09-19 16:27:10 GMT 38.542274 22.411621 37,025 122 480 0
2019-09-19 16:27:07 GMT 38.546036 22.404167 37,025 122 480 0
2019-09-19 16:27:02 GMT 38.552124 22.392166 37,025 122 479 0
2019-09-19 16:26:59 GMT 38.555588 22.385376 37,025 122 479 0
2019-09-19 16:26:55 GMT 38.559685 22.377197 37,025 122 479 0
2019-09-19 16:26:49 GMT 38.567829 22.361084 37,025 122 479 0
2019-09-19 16:26:45 GMT 38.572021 22.352905 37,025 122 479 0
2019-09-19 16:26:41 GMT 38.577515 22.341980 37,025 122 480 64
2019-09-19 16:26:38 GMT 38.580643 22.335861 37,025 122 480 64
2019-09-19 16:26:34 GMT 38.585472 22.326294 37,025 122 480 0
2019-09-19 16:26:30 GMT 38.593185 22.310965 37,025 122 479 0
2019-09-19 16:26:24 GMT 38.597530 22.302368 37,025 122 480 0
2019-09-19 16:26:18 GMT 38.605453 22.286604 37,025 122 480 -64
2019-09-19 16:26:13 GMT 38.610428 22.276855 37,025 122 480 -64
2019-09-19 16:26:07 GMT 38.617874 22.262085 37,025 122 480 0
2019-09-19 16:26:03 GMT 38.623367 22.251282 37,025 122 480 0
2019-09-19 16:25:56 GMT 38.630676 22.236877 37,025 122 480 0
2019-09-19 16:25:52 GMT 38.636993 22.224327 37,025 122 481 64
2019-09-19 16:25:46 GMT 38.643757 22.210876 37,025 122 480 0
2019-09-19 16:25:41 GMT 38.649536 22.199308 37,025 122 480 0
2019-09-19 16:25:35 GMT 38.656094 22.186279 37,025 122 480 0
2019-09-19 16:25:32 GMT 38.660477 22.177574 37,025 122 480 0
2019-09-19 16:25:29 GMT 38.662891 22.172791 37,025 122 480 0
2019-09-19 16:25:25 GMT 38.668011 22.162598 37,025 122 480 0
2019-09-19 16:25:21 GMT 38.674347 22.150049 37,025 122 480 0
2019-09-19 16:25:18 GMT 38.680893 22.137033 37,025 122 480 0
2019-09-19 16:25:15 GMT 38.680893 22.137033 37,025 122 480 0
2019-09-19 16:25:11 GMT 38.685329 22.128296 37,025 122 479 0
2019-09-19 16:25:07 GMT 38.689705 22.119568 37,025 122 479 0
2019-09-19 16:25:04 GMT 38.693115 22.112732 37,025 122 479 0
2019-09-19 16:25:01 GMT 38.697338 22.104309 37,025 122 479 0
2019-09-19 16:24:58 GMT 38.700989 22.097088 37,025 122 479 0
2019-09-19 16:24:55 GMT 38.705719 22.087646 37,025 122 479 0
2019-09-19 16:24:49 GMT 38.712700 22.073730 37,025 122 479 0
2019-09-19 16:24:43 GMT 38.718201 22.062756 37,025 122 479 64
2019-09-19 16:24:37 GMT 38.725983 22.047173 37,025 122 479 0
2019-09-19 16:24:33 GMT 38.731647 22.035889 37,025 122 479 0
2019-09-19 16:24:28 GMT 38.736420 22.026274 37,025 122 479 0
2019-09-19 16:24:25 GMT 38.741146 22.016907 37,025 122 479 0
2019-09-19 16:24:22 GMT 38.744568 22.009974 37,025 122 479 0
2019-09-19 16:24:17 GMT 38.749603 21.999943 37,025 122 479 64
2019-09-19 16:24:14 GMT 38.753677 21.991823 37,025 122 479 0
2019-09-19 16:24:11 GMT 38.757717 21.983765 37,025 122 479 0
2019-09-19 16:24:03 GMT 38.766861 21.965490 37,025 122 479 0
2019-09-19 16:24:00 GMT 38.774662 21.949890 37,025 122 479 -64
2019-09-19 16:23:56 GMT 38.774662 21.949890 37,025 122 479 -64
2019-09-19 16:23:53 GMT 38.779411 21.940430 37,025 122 479 -64
2019-09-19 16:23:49 GMT 38.784348 21.930502 37,025 122 479 0
2019-09-19 16:23:45 GMT 38.787598 21.923935 37,025 122 479 -64
2019-09-19 16:23:41 GMT 38.799240 21.900452 37,050 122 478 0
2019-09-19 16:23:35 GMT 38.799240 21.900452 37,050 122 478 0
2019-09-19 16:23:32 GMT 38.802841 21.893244 37,025 122 478 -64
2019-09-19 16:23:29 GMT 38.806549 21.885780 37,025 122 478 -64
2019-09-19 16:23:24 GMT 38.812454 21.873959 37,025 122 479 -64
2019-09-19 16:23:20 GMT 38.817165 21.864502 37,050 122 479 0
2019-09-19 16:23:17 GMT 38.821198 21.856464 37,050 122 478 0
2019-09-19 16:23:14 GMT 38.828659 21.841417 37,050 122 478 0
2019-09-19 16:23:11 GMT 38.828659 21.841417 37,050 122 478 0
2019-09-19 16:23:06 GMT 38.835251 21.828222 37,025 122 479 0
2019-09-19 16:23:03 GMT 38.837723 21.823206 37,025 122 479 64
2019-09-19 16:23:00 GMT 38.842072 21.814489 37,025 122 479 64
2019-09-19 16:22:55 GMT 38.847794 21.803024 37,025 122 479 0
2019-09-19 16:22:52 GMT 38.850266 21.798128 37,025 122 480 0
2019-09-19 16:22:49 GMT 38.855621 21.787380 37,025 122 479 64
2019-09-19 16:22:46 GMT 38.857498 21.783501 37,025 122 479 64
2019-09-19 16:22:43 GMT 38.861435 21.775574 37,025 122 479 64
2019-09-19 16:22:40 GMT 38.865555 21.767200 37,025 122 479 64
2019-09-19 16:22:33 GMT 38.872887 21.752380 37,000 122 479 64
2019-09-19 16:22:30 GMT 38.878147 21.741699 37,000 122 479 128
2019-09-19 16:22:24 GMT 38.884945 21.727966 37,000 122 479 128
2019-09-19 16:22:19 GMT 38.890182 21.717344 37,000 122 478 128
2019-09-19 16:22:12 GMT 38.897873 21.701759 36,975 122 478 64
2019-09-19 16:22:08 GMT 38.902775 21.691895 36,975 122 478 64
2019-09-19 16:22:03 GMT 38.910141 21.677040 36,975 122 478 64
2019-09-19 16:21:58 GMT 38.915436 21.666382 36,975 122 478 64
2019-09-19 16:21:54 GMT 38.919388 21.658352 36,975 122 478 0
2019-09-19 16:21:51 GMT 38.922836 21.651489 36,975 122 478 0
2019-09-19 16:21:48 GMT 38.927029 21.643005 36,975 122 478 0
2019-09-19 16:21:42 GMT 38.935360 21.626160 36,975 122 479 0
2019-09-19 16:21:39 GMT 38.937737 21.621399 36,975 122 479 0
2019-09-19 16:21:35 GMT 38.943466 21.609810 36,975 122 479 0
2019-09-19 16:21:29 GMT 38.948868 21.598824 36,975 122 479 0
2019-09-19 16:21:26 GMT 38.952255 21.592016 36,975 122 479 0
2019-09-19 16:21:18 GMT 38.962315 21.571594 36,975 122 479 -64
2019-09-19 16:21:13 GMT 38.969391 21.557312 36,975 122 477 -192
2019-09-19 16:21:09 GMT 38.972790 21.550415 37,000 122 477 -128
2019-09-19 16:21:06 GMT 38.977955 21.539917 37,000 122 477 -192
2019-09-19 16:20:59 GMT 38.984848 21.525919 37,000 122 477 -128
2019-09-19 16:20:55 GMT 38.989838 21.515709 37,025 122 479 -64
2019-09-19 16:20:49 GMT 38.998077 21.498932 37,025 122 477 -64
2019-09-19 16:20:45 GMT 39.001511 21.492004 37,025 122 477 -64
2019-09-19 16:20:37 GMT 39.010963 21.472778 37,025 122 478 -64
2019-09-19 16:20:34 GMT 39.015572 21.463440 37,050 122 479 -64
2019-09-19 16:20:28 GMT 39.022087 21.450195 37,050 122 479 -64
2019-09-19 16:20:23 GMT 39.027557 21.439043 37,050 122 480 -128
2019-09-19 16:20:14 GMT 39.039047 21.415579 37,075 122 481 0
2019-09-19 16:20:08 GMT 39.045456 21.402466 37,075 122 482 128
2019-09-19 16:20:05 GMT 39.049088 21.395081 37,050 122 482 128
2019-09-19 16:20:02 GMT 39.051498 21.390202 37,050 122 482 128
2019-09-19 16:19:55 GMT 39.060818 21.371155 37,025 122 483 0
2019-09-19 16:19:52 GMT 39.064358 21.363953 37,025 122 483 0
2019-09-19 16:19:45 GMT 39.073471 21.345362 37,025 122 483 64
2019-09-19 16:19:41 GMT 39.077087 21.337957 37,025 122 483 0
2019-09-19 16:19:32 GMT 39.088379 21.314880 37,025 122 484 0
2019-09-19 16:19:23 GMT 39.098419 21.294310 37,025 122 485 0
2019-09-19 16:19:19 GMT 39.103043 21.284851 37,025 122 485 -64
2019-09-19 16:19:13 GMT 39.111004 21.268616 37,025 122 485 0
2019-09-19 16:19:08 GMT 39.116318 21.257710 37,025 122 486 0
2019-09-19 16:19:03 GMT 39.123322 21.243380 37,025 122 486 0
2019-09-19 16:18:57 GMT 39.129593 21.230541 37,025 122 487 -64
2019-09-19 16:18:51 GMT 39.136642 21.216091 37,025 122 487 -64
2019-09-19 16:18:45 GMT 39.144009 21.201050 37,025 122 487 0
2019-09-19 16:18:42 GMT 39.151108 21.186478 37,025 121 486 0
2019-09-19 16:18:35 GMT 39.155369 21.177673 37,025 121 486 0
2019-09-19 16:18:31 GMT 39.160858 21.166443 37,025 121 486 0
2019-09-19 16:18:24 GMT 39.168400 21.150940 37,025 121 486 -64
2019-09-19 16:18:19 GMT 39.175598 21.136084 37,025 121 486 -64
2019-09-19 16:18:10 GMT 39.185951 21.114868 37,050 121 486 0
2019-09-19 16:18:03 GMT 39.194504 21.097273 37,050 121 486 0
2019-09-19 16:17:57 GMT 39.200867 21.084137 37,050 121 486 64
2019-09-19 16:17:52 GMT 39.207504 21.070435 37,050 121 487 64
2019-09-19 16:17:47 GMT 39.213371 21.058350 37,025 121 487 64
2019-09-19 16:17:40 GMT 39.221832 21.040789 37,025 121 488 0
2019-09-19 16:17:36 GMT 39.226543 21.031067 37,025 121 488 64
2019-09-19 16:17:28 GMT 39.235065 21.013489 37,025 121 487 64
2019-09-19 16:17:25 GMT 39.239227 21.004845 37,025 121 488 0
2019-09-19 16:17:18 GMT 39.248100 20.986511 37,025 121 488 -64
2019-09-19 16:17:15 GMT 39.251678 20.979170 37,025 121 488 0
2019-09-19 16:17:05 GMT 39.264587 20.952480 37,025 121 488 0
2019-09-19 16:16:54 GMT 39.276443 20.928059 37,025 121 489 0
2019-09-19 16:16:46 GMT 39.286366 20.907593 37,025 121 489 -64
2019-09-19 16:16:43 GMT 39.289295 20.901550 37,025 121 489 -64
2019-09-19 16:16:35 GMT 39.300247 20.878860 37,050 121 488 0
2019-09-19 16:16:32 GMT 39.302673 20.873785 37,050 121 489 -64
2019-09-19 16:16:26 GMT 39.311005 20.856529 37,050 121 488 64
2019-09-19 16:16:23 GMT 39.314529 20.849304 37,050 121 488 64
2019-09-19 16:16:12 GMT 39.336082 20.804626 37,025 121 489 64
2019-09-19 16:16:04 GMT 39.336082 20.804626 37,025 121 489 64
2019-09-19 16:16:01 GMT 39.339249 20.798035 37,025 121 490 128
2019-09-19 16:15:52 GMT 39.350559 20.774658 37,000 121 489 64
2019-09-19 16:15:45 GMT 39.359638 20.755798 37,000 121 489 0
2019-09-19 16:15:40 GMT 39.364929 20.744816 37,000 121 489 64
2019-09-19 16:15:34 GMT 39.371929 20.730225 37,000 121 489 64
2019-09-19 16:15:31 GMT 39.375839 20.722107 37,000 121 489 0
2019-09-19 16:15:24 GMT 39.384079 20.704956 37,000 121 488 0
2019-09-19 16:15:21 GMT 39.387772 20.697348 37,000 121 489 64
2019-09-19 16:15:13 GMT 39.396515 20.679075 37,000 121 489 -64
2019-09-19 16:15:10 GMT 39.400085 20.671673 37,000 121 488 64
2019-09-19 16:15:07 GMT 39.404327 20.662781 36,975 121 489 64
2019-09-19 16:15:03 GMT 39.408920 20.653341 36,975 121 489 0
2019-09-19 16:15:00 GMT 39.412537 20.645760 36,975 121 489 0
2019-09-19 16:14:56 GMT 39.417175 20.636108 36,975 121 488 64
2019-09-19 16:14:51 GMT 39.423248 20.623428 36,975 121 488 0
2019-09-19 16:14:48 GMT 39.427837 20.613831 36,975 121 488 -64
2019-09-19 16:14:45 GMT 39.430210 20.608948 36,975 121 488 -64
2019-09-19 16:14:42 GMT 39.434170 20.600708 36,975 121 488 0
2019-09-19 16:14:37 GMT 39.440506 20.587482 37,000 121 488 0
2019-09-19 16:14:32 GMT 39.445435 20.577209 37,000 121 488 0
2019-09-19 16:14:28 GMT 39.450462 20.566711 36,975 121 488 0
2019-09-19 16:14:25 GMT 39.453873 20.559601 36,975 121 488 64
2019-09-19 16:14:22 GMT 39.457352 20.552368 36,975 121 488 64
2019-09-19 16:14:18 GMT 39.466873 20.532492 36,975 121 488 0
2019-09-19 16:14:11 GMT 39.470444 20.525028 36,975 121 488 -64
2019-09-19 16:14:07 GMT 39.475086 20.515259 36,975 121 488 0
2019-09-19 16:14:01 GMT 39.483559 20.497681 36,975 121 488 -128
2019-09-19 16:13:57 GMT 39.487656 20.489136 37,000 121 488 -128
2019-09-19 16:13:52 GMT 39.494545 20.474731 37,025 121 488 -192
2019-09-19 16:13:46 GMT 39.500549 20.462036 37,025 121 488 -64
2019-09-19 16:13:40 GMT 39.507385 20.447706 37,000 121 488 0
2019-09-19 16:13:35 GMT 39.512749 20.436462 37,000 121 488 0
2019-09-19 16:13:30 GMT 39.519592 20.422058 37,000 121 488 -64
2019-09-19 16:13:25 GMT 39.525131 20.410461 37,025 121 489 -64
2019-09-19 16:13:19 GMT 39.537140 20.385254 37,025 121 489 0
2019-09-19 16:13:15 GMT 39.537140 20.385254 37,025 121 489 0
2019-09-19 16:13:09 GMT 39.544510 20.369787 37,050 121 489 -64
2019-09-19 16:13:03 GMT 39.552597 20.352783 37,025 121 490 -64
2019-09-19 16:13:00 GMT 39.556137 20.345427 37,050 121 490 -64
2019-09-19 16:12:57 GMT 39.559395 20.338501 37,050 121 490 -64
2019-09-19 16:12:54 GMT 39.568005 20.320435 37,050 121 490 64
2019-09-19 16:12:49 GMT 39.574429 20.306946 37,050 121 493 -64
2019-09-19 16:12:44 GMT 39.574429 20.306946 37,050 121 492 -64
2019-09-19 16:12:38 GMT 39.587677 20.279091 37,050 121 493 -64
2019-09-19 16:12:32 GMT 39.594818 20.264099 37,050 121 492 -64
2019-09-19 16:12:25 GMT 39.597332 20.258789 37,050 121 493 -64
2019-09-19 16:12:22 GMT 39.599800 20.253723 37,050 121 493 -64
2019-09-19 16:12:18 GMT 39.604595 20.243652 37,075 121 493 -64
2019-09-19 16:12:10 GMT 39.614868 20.222128 37,075 121 494 0
2019-09-19 16:12:06 GMT 39.618889 20.213684 37,075 121 495 0
2019-09-19 16:12:01 GMT 39.626038 20.198664 37,075 121 495 0
2019-09-19 16:11:56 GMT 39.639816 20.169525 37,075 121 495 64
2019-09-19 16:11:50 GMT 39.639816 20.169525 37,075 121 496 64
2019-09-19 16:11:39 GMT 39.652359 20.143553 37,075 124 496 0
2019-09-19 16:11:31 GMT 39.663158 20.124146 37,050 128 497 0
2019-09-19 16:11:28 GMT 39.667328 20.117519 37,050 130 496 0
2019-09-19 16:11:20 GMT 39.678707 20.101440 37,050 135 495 64
2019-09-19 16:11:16 GMT 39.686668 20.091736 37,050 138 494 128
2019-09-19 16:11:10 GMT 39.697140 20.080322 37,050 141 493 128
2019-09-19 16:11:07 GMT 39.701702 20.075867 37,025 144 491 128
2019-09-19 16:11:00 GMT 39.715809 20.063538 37,025 148 489 128
2019-09-19 16:10:57 GMT 39.721443 20.059204 37,000 150 488 128
2019-09-19 16:10:51 GMT 39.733498 20.050964 37,000 156 484 64
2019-09-19 16:10:47 GMT 39.742264 20.045811 37,000 157 483 64
2019-09-19 16:10:39 GMT 39.758034 20.038086 36,975 162 480 64
2019-09-19 16:10:36 GMT 39.764465 20.035480 36,975 164 478 64
2019-09-19 16:10:28 GMT 39.780052 20.030457 36,975 168 475 64
2019-09-19 16:10:25 GMT 39.787216 20.028673 36,975 171 472 0
2019-09-19 16:10:18 GMT 39.803650 20.025867 36,975 175 469 -128
2019-09-19 16:10:07 GMT 39.826138 20.024597 36,975 181 463 0
2019-09-19 16:09:55 GMT 39.854050 20.026167 37,000 184 460 -64
2019-09-19 16:09:49 GMT 39.864578 20.026882 37,000 184 460 -64
2019-09-19 16:09:44 GMT 39.875519 20.027658 37,000 183 460 64
2019-09-19 16:09:40 GMT 39.883907 20.028198 37,000 183 460 -64
2019-09-19 16:09:33 GMT 39.898388 20.029236 37,000 184 460 -64
2019-09-19 16:09:23 GMT 39.922760 20.030884 37,000 183 460 -64
2019-09-19 16:09:19 GMT 39.927841 20.031250 37,000 184 459 64
2019-09-19 16:09:15 GMT 39.938049 20.031982 37,000 184 459 0
2019-09-19 16:09:12 GMT 39.943588 20.032349 37,000 184 459 -64
2019-09-19 16:09:04 GMT 39.959839 20.033569 37,000 184 459 0
2019-09-19 16:08:54 GMT 39.981491 20.035095 37,000 184 459 0
2019-09-19 16:08:41 GMT 40.009323 20.037048 37,000 183 460 -64
2019-09-19 16:08:31 GMT 40.047592 20.039734 37,000 184 459 0
2019-09-19 16:08:23 GMT 40.047592 20.039734 37,000 184 459 0
2019-09-19 16:08:20 GMT 40.053452 20.040186 37,000 184 459 0
2019-09-19 16:08:11 GMT 40.072258 20.041622 37,000 184 459 0
2019-09-19 16:08:07 GMT 40.082291 20.042358 37,000 184 459 0
2019-09-19 16:08:02 GMT 40.091721 20.043030 37,000 184 460 -64
2019-09-19 16:07:52 GMT 40.114342 20.044619 37,025 183 460 -64
2019-09-19 16:07:41 GMT 40.137497 20.045959 37,050 183 461 -64
2019-09-19 16:07:36 GMT 40.149353 20.046631 37,050 183 461 -64
2019-09-19 16:07:30 GMT 40.160294 20.047241 37,050 183 461 0
2019-09-19 16:07:26 GMT 40.168903 20.047676 37,050 183 461 0
2019-09-19 16:07:20 GMT 40.181534 20.048340 37,050 183 462 0
2019-09-19 16:07:17 GMT 40.188995 20.048706 37,050 182 462 -64
2019-09-19 16:07:09 GMT 40.212383 20.049673 37,050 182 463 0
2019-09-19 16:07:06 GMT 40.212383 20.049673 37,050 182 463 0
2019-09-19 16:06:58 GMT 40.228909 20.050362 37,075 182 464 0
2019-09-19 16:06:48 GMT 40.249485 20.051235 37,075 182 464 0
2019-09-19 16:06:37 GMT 40.272858 20.052307 37,050 183 465 64
2019-09-19 16:06:33 GMT 40.282024 20.052795 37,050 183 465 64
2019-09-19 16:06:25 GMT 40.299435 20.053669 37,050 183 466 64
2019-09-19 16:06:16 GMT 40.320755 20.054918 37,050 183 466 64
2019-09-19 16:06:04 GMT 40.344776 20.056416 37,050 183 466 0
2019-09-19 16:05:54 GMT 40.366749 20.057852 37,025 183 466 0
2019-09-19 16:05:43 GMT 40.389404 20.059448 37,050 184 465 0
2019-09-19 16:05:34 GMT 40.410553 20.060974 37,050 184 465 0
2019-09-19 16:05:23 GMT 40.433533 20.062683 37,050 184 464 0
2019-09-19 16:05:13 GMT 40.456081 20.064655 37,050 185 464 64
2019-09-19 16:05:01 GMT 40.479858 20.066895 37,050 185 463 0
2019-09-19 16:04:51 GMT 40.502518 20.068970 37,050 185 463 64
2019-09-19 16:04:41 GMT 40.523849 20.070984 37,050 185 462 64
2019-09-19 16:04:32 GMT 40.542755 20.072815 37,050 185 462 -64
2019-09-19 16:04:19 GMT 40.570274 20.075392 37,050 185 461 64
2019-09-19 16:04:11 GMT 40.586334 20.076891 37,050 185 461 64
2019-09-19 16:04:08 GMT 40.592388 20.077452 37,050 185 461 128
2019-09-19 16:04:01 GMT 40.607704 20.078888 37,025 185 461 128
2019-09-19 16:03:58 GMT 40.613987 20.079512 37,025 185 461 64
2019-09-19 16:03:51 GMT 40.629227 20.080933 37,025 185 461 128
2019-09-19 16:03:48 GMT 40.636551 20.081604 37,000 185 461 128
2019-09-19 16:03:41 GMT 40.650391 20.082884 37,000 184 460 128
2019-09-19 16:03:38 GMT 40.657841 20.083508 37,000 184 460 128
2019-09-19 16:03:31 GMT 40.672596 20.084757 36,975 184 459 128
2019-09-19 16:03:27 GMT 40.680836 20.085505 36,975 184 459 64
2019-09-19 16:03:20 GMT 40.695053 20.086670 36,975 184 458 64
2019-09-19 16:03:17 GMT 40.702393 20.087254 36,975 184 458 64
2019-09-19 16:03:10 GMT 40.716751 20.088440 36,975 184 457 0
2019-09-19 16:03:06 GMT 40.725060 20.089125 36,975 184 457 0
2019-09-19 16:02:58 GMT 40.742203 20.090576 36,975 184 456 64
2019-09-19 16:02:55 GMT 40.748062 20.091064 36,950 184 456 0
2019-09-19 16:02:47 GMT 40.764771 20.092468 36,975 184 455 -64
2019-09-19 16:02:44 GMT 40.770538 20.092957 36,975 184 455 0
2019-09-19 16:02:39 GMT 40.781948 20.093931 36,975 184 454 0
2019-09-19 16:02:36 GMT 40.788280 20.094431 36,975 184 454 0
2019-09-19 16:02:29 GMT 40.802151 20.095617 36,975 184 453 64
2019-09-19 16:02:25 GMT 40.812347 20.096430 36,975 184 453 64
2019-09-19 16:02:18 GMT 40.825562 20.097473 36,975 184 453 0
2019-09-19 16:02:13 GMT 40.837391 20.098364 36,975 183 454 -64
2019-09-19 16:02:07 GMT 40.848843 20.098864 36,975 182 455 -128
2019-09-19 16:02:04 GMT 40.856323 20.099060 36,975 181 456 0
2019-09-19 16:01:58 GMT 40.867603 20.099051 36,975 179 456 -64
2019-09-19 16:01:52 GMT 40.880630 20.098877 37,000 179 456 -64
2019-09-19 16:01:47 GMT 40.890137 20.098801 37,000 179 456 0
2019-09-19 16:01:42 GMT 40.902191 20.098677 37,000 179 456 0
2019-09-19 16:01:38 GMT 40.910477 20.098572 37,000 179 456 64
2019-09-19 16:01:32 GMT 40.922150 20.098267 36,975 177 458 0
2019-09-19 16:01:27 GMT 40.938969 20.097054 36,975 174 460 0
2019-09-19 16:01:21 GMT 40.945129 20.096191 36,975 173 461 0
2019-09-19 16:01:16 GMT 40.955868 20.094057 37,000 169 463 -64
2019-09-19 16:01:11 GMT 40.966530 20.091124 37,000 167 464 -64
2019-09-19 16:01:04 GMT 40.981476 20.085693 37,000 161 468 -64
2019-09-19 16:01:00 GMT 40.989712 20.082008 37,000 161 468 -64
2019-09-19 16:00:56 GMT 40.997406 20.078247 37,000 159 469 -64
2019-09-19 16:00:49 GMT 41.012009 20.071148 37,000 159 469 -64
2019-09-19 16:00:46 GMT 41.018280 20.068054 37,025 159 470 -64
2019-09-19 16:00:41 GMT 41.030914 20.061951 37,025 159 470 -64
2019-09-19 16:00:36 GMT 41.038742 20.058105 37,025 159 470 -64
2019-09-19 16:00:30 GMT 41.049854 20.052732 37,025 159 470 0
2019-09-19 16:00:25 GMT 41.060211 20.047668 37,025 159 471 0
2019-09-19 16:00:19 GMT 41.074036 20.040955 37,025 159 470 -64
2019-09-19 16:00:15 GMT 41.080170 20.037964 37,025 159 471 -64
2019-09-19 16:00:09 GMT 41.101685 20.027588 37,050 159 472 -64
2019-09-19 15:59:59 GMT 41.113953 20.021667 37,050 159 473 -64
2019-09-19 15:59:49 GMT 41.136166 20.011036 37,075 160 473 0
2019-09-19 15:59:38 GMT 41.157719 20.000734 37,075 160 474 64
2019-09-19 15:59:28 GMT 41.180531 19.989685 37,050 159 476 0
2019-09-19 15:59:18 GMT 41.198872 19.980137 37,075 156 477 0
2019-09-19 15:59:14 GMT 41.207714 19.974831 37,075 155 478 64
2019-09-19 15:59:07 GMT 41.221027 19.965654 37,050 150 480 64
2019-09-19 15:59:03 GMT 41.231186 19.957520 37,050 148 481 64
2019-09-19 15:58:58 GMT 41.237228 19.952171 37,050 145 482 0
2019-09-19 15:58:55 GMT 41.243546 19.946167 37,050 142 483 64
2019-09-19 15:58:47 GMT 41.257294 19.931383 37,050 138 485 0
2019-09-19 15:58:42 GMT 41.265015 19.921936 37,050 137 485 0
2019-09-19 15:58:38 GMT 41.271305 19.913717 37,025 134 485 0
2019-09-19 15:58:34 GMT 41.278198 19.904480 37,025 134 486 64
2019-09-19 15:58:26 GMT 41.290112 19.888437 37,025 134 486 64
2019-09-19 15:58:23 GMT 41.294907 19.882071 37,025 134 485 64
2019-09-19 15:58:15 GMT 41.307861 19.864624 37,025 134 485 64
2019-09-19 15:58:11 GMT 41.314590 19.855652 37,025 134 485 64
2019-09-19 15:58:05 GMT 41.323212 19.844055 37,000 134 485 64
2019-09-19 15:58:02 GMT 41.327774 19.837952 37,000 134 485 64
2019-09-19 15:57:57 GMT 41.335781 19.827202 37,000 134 485 0
2019-09-19 15:57:52 GMT 41.344440 19.815529 37,000 134 486 0
2019-09-19 15:57:47 GMT 41.352261 19.804979 37,000 134 485 0
2019-09-19 15:57:43 GMT 41.358356 19.796677 37,000 134 485 0
2019-09-19 15:57:40 GMT 41.362152 19.791565 37,000 134 485 0
2019-09-19 15:57:36 GMT 41.369858 19.781197 37,000 134 485 128
2019-09-19 15:57:32 GMT 41.377769 19.770458 37,000 134 485 64
2019-09-19 15:57:26 GMT 41.385033 19.760721 36,975 134 485 0
2019-09-19 15:57:21 GMT 41.393463 19.749298 36,975 134 485 0
2019-09-19 15:57:12 GMT 41.406448 19.732084 37,000 136 484 -64
2019-09-19 15:57:09 GMT 41.412735 19.724142 37,000 136 483 -64
2019-09-19 15:57:06 GMT 41.417496 19.718273 37,000 137 484 0
2019-09-19 15:57:03 GMT 41.427719 19.706022 37,000 139 482 -64
2019-09-19 15:56:55 GMT 41.434525 19.698174 37,000 139 482 -64
2019-09-19 15:56:52 GMT 41.441360 19.690437 37,025 139 481 -64
2019-09-19 15:56:48 GMT 41.447479 19.683567 37,025 139 481 -64
2019-09-19 15:56:41 GMT 41.458420 19.671333 37,025 139 481 0
2019-09-19 15:56:38 GMT 41.463638 19.665527 37,025 139 481 0
2019-09-19 15:56:35 GMT 41.468994 19.659534 37,025 139 481 64
2019-09-19 15:56:31 GMT 41.477440 19.650005 37,025 139 481 0
2019-09-19 15:56:27 GMT 41.483814 19.642853 37,025 139 481 0
2019-09-19 15:56:20 GMT 41.494492 19.630882 37,025 139 481 0
2019-09-19 15:56:16 GMT 41.502731 19.621582 37,025 139 482 0
2019-09-19 15:56:11 GMT 41.519165 19.603106 37,025 139 482 0
2019-09-19 15:56:07 GMT 41.519165 19.603106 37,025 139 483 0
2019-09-19 15:56:04 GMT 41.521523 19.600439 37,025 139 483 0
2019-09-19 15:56:01 GMT 41.528366 19.592775 37,025 139 482 64
2019-09-19 15:55:55 GMT 41.536835 19.583256 37,025 139 482 0
2019-09-19 15:55:50 GMT 41.546127 19.572830 37,025 139 482 0
2019-09-19 15:55:45 GMT 41.555321 19.562498 37,025 139 482 0
2019-09-19 15:55:40 GMT 41.563293 19.553604 37,000 139 482 0
2019-09-19 15:55:33 GMT 41.574509 19.540932 37,025 139 482 0
2019-09-19 15:55:29 GMT 41.581329 19.533255 37,025 139 482 0
2019-09-19 15:55:25 GMT 41.590561 19.522898 37,025 139 482 64
2019-09-19 15:55:19 GMT 41.598522 19.513954 37,000 139 481 64
2019-09-19 15:55:13 GMT 41.609367 19.501755 37,000 139 481 0
2019-09-19 15:55:08 GMT 41.617329 19.492811 37,000 139 481 64
2019-09-19 15:55:04 GMT 41.626499 19.482464 37,000 139 481 0
2019-09-19 15:54:58 GMT 41.634830 19.473076 37,000 139 481 0
2019-09-19 15:54:53 GMT 41.643494 19.463341 37,000 139 481 0
2019-09-19 15:54:47 GMT 41.652988 19.452635 37,000 139 481 0
2019-09-19 15:54:36 GMT 41.671284 19.432005 37,025 139 481 0
2019-09-19 15:54:30 GMT 41.681244 19.420761 37,025 139 481 0
2019-09-19 15:54:26 GMT 41.688366 19.412779 37,025 139 481 64
2019-09-19 15:54:22 GMT 41.696548 19.403542 37,025 139 481 0
2019-09-19 15:54:16 GMT 41.706524 19.392275 37,000 139 481 64
2019-09-19 15:54:11 GMT 41.713852 19.383940 37,000 139 481 0
2019-09-19 15:54:08 GMT 41.720303 19.376690 37,000 139 481 64
2019-09-19 15:54:05 GMT 41.723839 19.372665 37,000 139 481 64
2019-09-19 15:53:58 GMT 41.737473 19.357286 37,000 139 481 0
2019-09-19 15:53:55 GMT 41.741547 19.352667 37,000 139 481 0
2019-09-19 15:53:48 GMT 41.752701 19.340090 37,025 141 480 -64
2019-09-19 15:53:45 GMT 41.759262 19.332878 37,000 141 480 -64
2019-09-19 15:53:39 GMT 41.769974 19.321518 37,025 142 479 0
2019-09-19 15:53:35 GMT 41.776817 19.314541 37,025 143 480 -64
2019-09-19 15:53:31 GMT 41.783844 19.307535 37,025 143 478 -64
2019-09-19 15:53:28 GMT 41.790874 19.300743 37,025 144 478 0
2019-09-19 15:53:24 GMT 41.795902 19.296017 37,025 145 478 0
2019-09-19 15:53:18 GMT 41.815269 19.278452 37,025 146 477 -64
2019-09-19 15:53:13 GMT 41.815269 19.278452 37,025 146 477 0
2019-09-19 15:53:07 GMT 41.829094 19.266060 37,025 146 477 0
2019-09-19 15:53:03 GMT 41.833702 19.261908 37,025 146 477 0
2019-09-19 15:52:56 GMT 41.847290 19.249670 37,025 146 477 0
2019-09-19 15:52:53 GMT 41.852783 19.244738 37,025 146 477 0
2019-09-19 15:52:46 GMT 41.867359 19.231630 37,025 146 477 0
2019-09-19 15:52:42 GMT 41.872238 19.227324 37,025 146 477 0
2019-09-19 15:52:35 GMT 41.886307 19.214642 37,025 146 478 0
2019-09-19 15:52:32 GMT 41.891647 19.209845 37,025 146 478 0
2019-09-19 15:52:26 GMT 41.902599 19.199949 37,025 146 478 -64
2019-09-19 15:52:22 GMT 41.909912 19.193365 37,025 145 478 0
2019-09-19 15:52:14 GMT 41.924622 19.180084 37,025 146 478 -64
2019-09-19 15:52:09 GMT 41.932674 19.172804 37,025 146 478 0
2019-09-19 15:52:05 GMT 41.941471 19.164883 37,025 146 478 64
2019-09-19 15:52:01 GMT 41.947678 19.159283 37,025 146 478 0
2019-09-19 15:51:56 GMT 41.959721 19.148466 37,025 146 478 0
2019-09-19 15:51:51 GMT 41.966217 19.142553 37,025 146 478 -64
2019-09-19 15:51:44 GMT 41.979877 19.130262 37,050 146 478 0
2019-09-19 15:51:41 GMT 41.985306 19.125387 37,050 145 478 0
2019-09-19 15:51:34 GMT 41.997940 19.113976 37,050 146 478 0
2019-09-19 15:51:30 GMT 42.004395 19.108095 37,050 146 478 0
2019-09-19 15:51:24 GMT 42.016281 19.097368 37,050 146 478 0
2019-09-19 15:51:20 GMT 42.023254 19.091118 37,050 146 477 0
2019-09-19 15:51:15 GMT 42.033875 19.081442 37,050 146 478 -64
2019-09-19 15:51:09 GMT 42.042953 19.073288 37,050 146 478 0
2019-09-19 15:51:04 GMT 42.052452 19.064665 37,050 145 478 0
2019-09-19 15:50:59 GMT 42.061623 19.056360 37,050 145 478 0
2019-09-19 15:50:54 GMT 42.072647 19.046423 37,050 146 477 -64
2019-09-19 15:50:48 GMT 42.081688 19.038221 37,050 146 477 64
2019-09-19 15:50:42 GMT 42.093567 19.027447 37,050 146 477 0
2019-09-19 15:50:37 GMT 42.101845 19.019953 37,050 146 477 64
2019-09-19 15:50:33 GMT 42.109245 19.013247 37,050 146 477 64
2019-09-19 15:50:30 GMT 42.116547 19.006660 37,025 146 477 64
2019-09-19 15:50:27 GMT 42.120667 19.002914 37,025 146 477 64
2019-09-19 15:50:24 GMT 42.127960 18.996256 37,025 146 477 0
2019-09-19 15:50:19 GMT 42.135178 18.989742 37,025 146 477 0
2019-09-19 15:50:16 GMT 42.139481 18.985872 37,025 146 477 64
2019-09-19 15:50:13 GMT 42.146210 18.979712 37,025 146 477 0
2019-09-19 15:50:06 GMT 42.158890 18.968269 37,025 145 476 0
2019-09-19 15:50:02 GMT 42.165947 18.961826 37,025 145 476 64
2019-09-19 15:49:58 GMT 42.173626 18.954865 37,025 145 476 64
2019-09-19 15:49:55 GMT 42.178284 18.950586 37,025 145 476 64
2019-09-19 15:49:51 GMT 42.186539 18.943113 37,025 145 475 64
2019-09-19 15:49:43 GMT 42.202835 18.928196 37,000 145 475 64
2019-09-19 15:49:35 GMT 42.215523 18.916670 37,000 145 475 128
2019-09-19 15:49:32 GMT 42.220963 18.911715 37,000 145 475 64
2019-09-19 15:49:24 GMT 42.240601 18.893801 37,000 145 474 0
2019-09-19 15:49:14 GMT 42.253235 18.882252 36,975 145 475 128
2019-09-19 15:49:11 GMT 42.258774 18.877195 36,975 145 475 64
2019-09-19 15:49:02 GMT 42.278183 18.859406 36,975 145 474 64
2019-09-19 15:48:58 GMT 42.284935 18.853243 36,950 145 472 0
2019-09-19 15:48:54 GMT 42.290379 18.848261 36,975 145 473 0
2019-09-19 15:48:51 GMT 42.296677 18.842489 36,975 145 473 0
2019-09-19 15:48:43 GMT 42.309402 18.830940 36,975 145 473 0
2019-09-19 15:48:39 GMT 42.328972 18.813065 36,950 145 472 64
2019-09-19 15:48:32 GMT 42.328972 18.813065 36,950 145 472 64
2019-09-19 15:48:26 GMT 42.340988 18.802038 36,950 145 472 0
2019-09-19 15:48:22 GMT 42.347260 18.796358 36,950 145 472 0
2019-09-19 15:48:17 GMT 42.358383 18.786121 36,975 145 471 0
2019-09-19 15:48:12 GMT 42.365887 18.779276 36,975 145 471 0
2019-09-19 15:48:07 GMT 42.376362 18.769693 36,975 145 470 -64
2019-09-19 15:48:02 GMT 42.395962 18.751810 36,975 145 470 -64
2019-09-19 15:47:56 GMT 42.403221 18.745104 36,975 145 470 -128
2019-09-19 15:47:51 GMT 42.403221 18.745104 36,975 145 470 -128
2019-09-19 15:47:46 GMT 42.413315 18.735809 36,975 145 469 0
2019-09-19 15:47:40 GMT 42.423286 18.726707 36,975 145 469 -64
2019-09-19 15:47:34 GMT 42.435791 18.715210 37,000 145 469 -64
2019-09-19 15:47:30 GMT 42.440186 18.711153 37,000 145 469 -64
2019-09-19 15:47:20 GMT 42.458714 18.694132 37,025 145 470 -128
2019-09-19 15:47:14 GMT 42.469559 18.684168 37,025 145 470 -128
2019-09-19 15:47:10 GMT 42.476944 18.677382 37,025 145 470 -64
2019-09-19 15:47:03 GMT 42.489250 18.666092 37,050 145 469 -64
2019-09-19 15:46:59 GMT 42.495987 18.659842 37,050 145 469 -64
2019-09-19 15:46:49 GMT 42.514202 18.643097 37,050 145 470 -64
2019-09-19 15:46:42 GMT 42.526772 18.631472 37,050 145 472 -64
2019-09-19 15:46:38 GMT 42.534824 18.624062 37,050 145 472 -64
2019-09-19 15:46:28 GMT 42.558010 18.602728 37,075 145 472 0
2019-09-19 15:46:18 GMT 42.583099 18.579630 37,050 145 473 128
2019-09-19 15:46:11 GMT 42.583099 18.579630 37,050 145 474 128
2019-09-19 15:46:08 GMT 42.601860 18.562359 37,025 145 474 128
2019-09-19 15:46:02 GMT 42.601860 18.562359 37,025 145 475 0
2019-09-19 15:45:57 GMT 42.608471 18.556229 37,025 145 475 0
2019-09-19 15:45:47 GMT 42.627373 18.538727 37,025 145 475 64
2019-09-19 15:45:41 GMT 42.639496 18.527445 37,025 145 475 64
2019-09-19 15:45:36 GMT 42.646500 18.520952 37,025 145 475 64
2019-09-19 15:45:32 GMT 42.653023 18.514900 37,025 145 474 64
2019-09-19 15:45:29 GMT 42.659454 18.508966 37,025 145 475 0
2019-09-19 15:45:26 GMT 42.665638 18.503212 37,025 145 475 -192
2019-09-19 15:45:18 GMT 42.679977 18.489925 37,025 145 474 128
2019-09-19 15:45:15 GMT 42.684258 18.485966 37,025 145 474 192
2019-09-19 15:45:10 GMT 42.694382 18.476568 37,025 145 474 128
2019-09-19 15:45:04 GMT 42.704323 18.467316 37,025 145 474 64
2019-09-19 15:44:58 GMT 42.721920 18.450962 37,000 145 474 128
2019-09-19 15:44:54 GMT 42.721920 18.450962 37,000 145 475 64
2019-09-19 15:44:47 GMT 42.735188 18.438637 37,000 145 474 64
2019-09-19 15:44:44 GMT 42.740845 18.433311 37,025 145 476 -256
2019-09-19 15:44:34 GMT 42.759907 18.415705 37,025 145 473 0
2019-09-19 15:44:28 GMT 42.770966 18.405409 37,025 145 473 64
2019-09-19 15:44:24 GMT 42.778015 18.398842 37,025 145 473 0
2019-09-19 15:44:13 GMT 42.797058 18.381063 37,025 145 473 0
2019-09-19 15:44:02 GMT 42.816513 18.362928 37,025 145 474 0
2019-09-19 15:43:50 GMT 42.838860 18.342068 37,025 145 474 -64
2019-09-19 15:43:42 GMT 42.853245 18.328596 37,025 145 474 64
2019-09-19 15:43:31 GMT 42.872314 18.310823 37,025 145 473 0
2019-09-19 15:43:26 GMT 42.882385 18.301392 37,025 145 473 0
2019-09-19 15:43:21 GMT 42.891602 18.292759 37,025 145 473 0
2019-09-19 15:43:11 GMT 42.909302 18.276203 37,025 145 473 64
2019-09-19 15:43:00 GMT 42.928101 18.258623 37,025 145 473 0
2019-09-19 15:42:50 GMT 42.946815 18.241032 37,025 145 473 0
2019-09-19 15:42:42 GMT 42.960732 18.228020 37,025 145 473 0
2019-09-19 15:42:39 GMT 42.965881 18.223188 37,025 145 473 0
2019-09-19 15:42:32 GMT 42.978928 18.210924 37,025 145 472 0
2019-09-19 15:42:29 GMT 42.984238 18.205942 37,025 145 472 0
2019-09-19 15:42:19 GMT 43.003235 18.188063 37,025 145 472 0
2019-09-19 15:42:08 GMT 43.022781 18.169725 37,000 145 471 0
2019-09-19 15:41:57 GMT 43.042805 18.150852 37,000 145 471 0
2019-09-19 15:41:47 GMT 43.060822 18.133915 37,000 145 471 0
2019-09-19 15:41:35 GMT 43.082329 18.113644 37,025 145 470 0
2019-09-19 15:41:25 GMT 43.098759 18.098080 37,000 145 469 64
2019-09-19 15:41:12 GMT 43.122116 18.076023 37,000 145 469 0
2019-09-19 15:41:02 GMT 43.140285 18.058777 37,000 145 469 0
2019-09-19 15:40:53 GMT 43.156345 18.043606 37,000 145 469 -64
2019-09-19 15:40:36 GMT 43.186890 18.014769 37,025 145 467 -64
2019-09-19 15:40:28 GMT 43.201126 18.001228 37,025 145 467 0
2019-09-19 15:40:23 GMT 43.210327 17.992540 37,025 145 467 0
2019-09-19 15:40:17 GMT 43.222504 17.981043 37,025 145 467 0
2019-09-19 15:40:08 GMT 43.236694 17.967566 37,025 145 467 0
2019-09-19 15:39:56 GMT 43.258106 17.947212 37,025 145 467 0
2019-09-19 15:39:47 GMT 43.273407 17.932690 37,050 145 467 0
2019-09-19 15:39:36 GMT 43.292862 17.914293 37,025 145 467 0
2019-09-19 15:39:26 GMT 43.312134 17.895962 37,050 145 466 0
2019-09-19 15:39:15 GMT 43.331009 17.877960 37,050 145 465 64
2019-09-19 15:39:05 GMT 43.348045 17.861742 37,025 145 465 64
2019-09-19 15:38:55 GMT 43.367134 17.843563 37,025 145 465 128
2019-09-19 15:38:43 GMT 43.387207 17.824360 37,000 145 465 64
2019-09-19 15:38:32 GMT 43.407303 17.805134 37,025 145 463 0
2019-09-19 15:38:24 GMT 43.420017 17.793013 37,025 145 464 0
2019-09-19 15:38:21 GMT 43.437927 17.775879 37,025 145 464 0
2019-09-19 15:38:14 GMT 43.437927 17.775879 37,025 145 463 0
2019-09-19 15:38:10 GMT 43.444828 17.769274 37,025 145 463 0
2019-09-19 15:38:04 GMT 43.456329 17.758287 37,025 145 463 0
2019-09-19 15:38:00 GMT 43.463356 17.751553 37,000 145 462 0
2019-09-19 15:37:56 GMT 43.469315 17.745796 37,000 144 461 0
2019-09-19 15:37:52 GMT 43.476437 17.738997 37,000 145 462 0
2019-09-19 15:37:49 GMT 43.481918 17.733786 37,025 145 462 0
2019-09-19 15:37:44 GMT 43.490402 17.725590 37,025 145 462 0
2019-09-19 15:37:37 GMT 43.502319 17.714146 37,025 144 461 0
2019-09-19 15:37:33 GMT 43.510376 17.706430 37,025 144 461 0
2019-09-19 15:37:29 GMT 43.517033 17.700022 37,025 145 461 0
2019-09-19 15:37:26 GMT 43.522385 17.694887 37,025 144 461 0
2019-09-19 15:37:23 GMT 43.529251 17.688244 37,025 144 461 0
2019-09-19 15:37:17 GMT 43.537674 17.680132 37,025 144 460 0
2019-09-19 15:37:12 GMT 43.546593 17.671574 37,000 144 460 64
2019-09-19 15:37:08 GMT 43.553715 17.664707 37,025 144 460 64
2019-09-19 15:37:00 GMT 43.567062 17.651836 37,000 144 460 0
2019-09-19 15:36:57 GMT 43.572430 17.646660 37,000 144 460 0
2019-09-19 15:36:50 GMT 43.584251 17.635281 37,000 144 460 0
2019-09-19 15:36:47 GMT 43.590305 17.629524 37,000 144 460 64
2019-09-19 15:36:41 GMT 43.602318 17.617950 37,000 145 459 0
2019-09-19 15:36:35 GMT 43.611019 17.609579 37,000 144 459 64
2019-09-19 15:36:31 GMT 43.618149 17.602654 37,000 145 458 64
2019-09-19 15:36:26 GMT 43.626526 17.594604 37,000 145 458 64
2019-09-19 15:36:18 GMT 43.640068 17.581591 37,000 145 458 64
2019-09-19 15:36:15 GMT 43.645065 17.576784 37,000 145 458 64
2019-09-19 15:36:09 GMT 43.656784 17.565477 37,000 145 458 0
2019-09-19 15:36:05 GMT 43.662834 17.559618 37,000 145 458 0
2019-09-19 15:35:58 GMT 43.675076 17.547848 37,000 144 458 64
2019-09-19 15:35:54 GMT 43.682106 17.541046 37,000 144 458 0
2019-09-19 15:35:48 GMT 43.693863 17.529709 36,975 144 458 0
2019-09-19 15:35:43 GMT 43.701645 17.522171 37,000 144 458 0
2019-09-19 15:35:37 GMT 43.711533 17.512653 37,000 144 458 0
2019-09-19 15:35:31 GMT 43.721191 17.503265 37,000 144 458 0
2019-09-19 15:35:27 GMT 43.729916 17.494877 37,000 144 458 0
2019-09-19 15:35:24 GMT 43.735840 17.489149 37,000 145 457 -64
2019-09-19 15:35:21 GMT 43.739319 17.485764 37,000 144 458 0
2019-09-19 15:35:15 GMT 43.750580 17.474905 37,000 144 457 0
2019-09-19 15:35:10 GMT 43.758312 17.467413 37,000 144 457 0
2019-09-19 15:35:01 GMT 43.774246 17.451975 37,000 144 457 0
2019-09-19 15:34:57 GMT 43.780151 17.446224 37,000 144 457 0
2019-09-19 15:34:54 GMT 43.785416 17.441114 37,000 144 457 0
2019-09-19 15:34:50 GMT 43.793289 17.433451 37,000 144 457 0
2019-09-19 15:34:45 GMT 43.801605 17.425364 37,000 144 457 0
2019-09-19 15:34:41 GMT 43.808681 17.418430 37,000 144 457 0
2019-09-19 15:34:34 GMT 43.823021 17.404436 37,000 144 457 0
2019-09-19 15:34:31 GMT 43.825653 17.401897 37,025 144 457 0
2019-09-19 15:34:24 GMT 43.839661 17.388290 37,025 144 457 0
2019-09-19 15:34:20 GMT 43.844666 17.383379 37,025 144 457 0
2019-09-19 15:34:11 GMT 43.860626 17.367851 37,025 144 458 0
2019-09-19 15:34:08 GMT 43.866360 17.362257 37,025 144 458 0
2019-09-19 15:34:00 GMT 43.879807 17.349073 37,025 144 459 64
2019-09-19 15:33:56 GMT 43.885818 17.343227 37,025 144 458 64
2019-09-19 15:33:52 GMT 43.895325 17.334000 37,000 144 458 64
2019-09-19 15:33:46 GMT 43.904812 17.324720 37,000 144 459 64
2019-09-19 15:33:41 GMT 43.914230 17.315538 37,000 144 459 64
2019-09-19 15:33:38 GMT 43.918453 17.311380 37,000 144 459 64
2019-09-19 15:33:31 GMT 43.929153 17.300976 37,000 144 460 0
2019-09-19 15:33:27 GMT 43.936142 17.294115 37,000 144 460 0
2019-09-19 15:33:24 GMT 43.941742 17.288649 37,000 144 460 64
2019-09-19 15:33:18 GMT 43.953003 17.277597 37,000 144 460 64
2019-09-19 15:33:15 GMT 43.971130 17.259842 37,000 144 460 64
2019-09-19 15:33:07 GMT 43.977310 17.253773 37,000 144 460 64
2019-09-19 15:33:04 GMT 43.977310 17.253773 36,975 144 461 64
2019-09-19 15:32:57 GMT 43.988186 17.243107 36,975 144 460 64
2019-09-19 15:32:54 GMT 43.993912 17.237482 36,975 144 460 64
2019-09-19 15:32:51 GMT 43.999870 17.231663 36,975 144 460 64
2019-09-19 15:32:48 GMT 44.006901 17.224796 36,975 144 461 64
2019-09-19 15:32:45 GMT 44.010487 17.221266 36,975 144 461 64
2019-09-19 15:32:41 GMT 44.017422 17.214464 36,975 144 460 64
2019-09-19 15:32:34 GMT 44.028488 17.203505 36,975 143 461 0
2019-09-19 15:32:29 GMT 44.037781 17.194052 36,975 142 462 0
2019-09-19 15:32:24 GMT 44.045307 17.186083 36,975 142 463 0
2019-09-19 15:32:18 GMT 44.055359 17.175079 36,975 140 464 0
2019-09-19 15:32:15 GMT 44.061230 17.168362 36,975 139 465 0
2019-09-19 15:32:05 GMT 44.078659 17.147678 36,975 138 465 -128
2019-09-19 15:31:53 GMT 44.096741 17.125769 37,000 138 466 -64
2019-09-19 15:31:42 GMT 44.114639 17.104052 37,050 138 467 -64
2019-09-19 15:31:34 GMT 44.133057 17.081713 37,025 138 467 -64
2019-09-19 15:31:27 GMT 44.138672 17.074926 37,050 138 467 -128
2019-09-19 15:31:21 GMT 44.148697 17.062790 37,050 138 468 0
2019-09-19 15:31:16 GMT 44.157074 17.052633 37,050 138 468 0
2019-09-19 15:31:10 GMT 44.167973 17.039404 37,050 138 469 64
2019-09-19 15:31:04 GMT 44.176723 17.028809 37,050 138 469 64
2019-09-19 15:30:59 GMT 44.184826 17.018934 37,025 138 471 64
2019-09-19 15:30:53 GMT 44.194321 17.007423 37,025 138 471 64
2019-09-19 15:30:49 GMT 44.201111 16.999186 37,025 138 472 0
2019-09-19 15:30:41 GMT 44.214615 16.982771 37,025 138 473 0
2019-09-19 15:30:38 GMT 44.221252 16.974663 37,025 138 474 -64
2019-09-19 15:30:31 GMT 44.230213 16.963760 37,050 138 474 -128
2019-09-19 15:30:28 GMT 44.236588 16.955959 37,050 138 474 -64
2019-09-19 15:30:17 GMT 44.255585 16.932810 37,075 138 475 0
2019-09-19 15:30:07 GMT 44.269730 16.915609 37,050 138 476 64
2019-09-19 15:30:04 GMT 44.275269 16.908875 37,050 138 476 64
2019-09-19 15:29:53 GMT 44.292965 16.887259 37,050 138 477 0
2019-09-19 15:29:44 GMT 44.309189 16.867414 37,050 138 478 0
2019-09-19 15:29:33 GMT 44.327320 16.845190 37,050 138 479 64
2019-09-19 15:29:25 GMT 44.341240 16.828175 37,075 138 479 -64
2019-09-19 15:29:22 GMT 44.344452 16.824223 37,075 138 479 0
2019-09-19 15:29:19 GMT 44.350456 16.816919 37,075 138 479 0
2019-09-19 15:29:15 GMT 44.358078 16.807577 37,075 138 479 64
2019-09-19 15:29:12 GMT 44.361191 16.803785 37,075 138 479 0
2019-09-19 15:29:08 GMT 44.367554 16.795938 37,075 138 479 0
2019-09-19 15:29:04 GMT 44.375793 16.785868 37,050 138 479 64
2019-09-19 15:29:00 GMT 44.381653 16.778740 37,050 138 480 64
2019-09-19 15:28:54 GMT 44.392681 16.765203 37,050 138 480 0
2019-09-19 15:28:51 GMT 44.397427 16.759377 37,050 138 480 0
2019-09-19 15:28:43 GMT 44.410446 16.743361 37,050 138 480 64
2019-09-19 15:28:40 GMT 44.416748 16.735594 37,050 138 481 64
2019-09-19 15:28:33 GMT 44.429131 16.720322 37,025 138 480 64
2019-09-19 15:28:29 GMT 44.432510 16.716221 37,025 138 480 64
2019-09-19 15:28:19 GMT 44.450729 16.693790 37,025 138 481 64
2019-09-19 15:28:11 GMT 44.462997 16.678684 37,025 138 479 64
2019-09-19 15:28:08 GMT 44.468903 16.671427 37,025 138 479 64
2019-09-19 15:28:02 GMT 44.479687 16.658154 37,000 138 479 64
2019-09-19 15:27:56 GMT 44.488632 16.647163 37,000 138 479 0
2019-09-19 15:27:49 GMT 44.500031 16.633234 37,000 138 477 64
2019-09-19 15:27:46 GMT 44.505661 16.626238 37,025 138 479 0
2019-09-19 15:27:34 GMT 44.524109 16.603481 37,025 138 479 0
2019-09-19 15:27:31 GMT 44.531616 16.594194 37,025 138 478 0
2019-09-19 15:27:24 GMT 44.547375 16.574684 37,000 138 478 0
2019-09-19 15:27:21 GMT 44.547375 16.574684 37,000 138 478 0
2019-09-19 15:27:14 GMT 44.557987 16.561556 37,000 138 476 64
2019-09-19 15:27:09 GMT 44.565853 16.551842 37,000 138 478 64
2019-09-19 15:27:03 GMT 44.576328 16.538845 37,000 138 474 64
2019-09-19 15:26:59 GMT 44.584194 16.529133 37,000 138 477 64
2019-09-19 15:26:51 GMT 44.602303 16.506824 37,000 138 476 64
2019-09-19 15:26:47 GMT 44.611290 16.495705 37,000 138 476 64
2019-09-19 15:26:42 GMT 44.611290 16.495705 37,000 138 476 0
2019-09-19 15:26:39 GMT 44.629768 16.472794 37,000 138 476 0
2019-09-19 15:26:32 GMT 44.629768 16.472794 36,975 138 474 64
2019-09-19 15:26:28 GMT 44.636009 16.465021 37,000 138 476 0
2019-09-19 15:26:21 GMT 44.646149 16.452419 36,975 138 475 64
2019-09-19 15:26:16 GMT 44.652878 16.444048 36,975 138 474 128
2019-09-19 15:26:11 GMT 44.662399 16.432213 36,975 138 474 64
2019-09-19 15:26:07 GMT 44.670551 16.422083 36,975 138 474 64
2019-09-19 15:26:03 GMT 44.675251 16.416254 36,950 138 474 64
2019-09-19 15:26:00 GMT 44.681164 16.408953 36,950 138 473 0
2019-09-19 15:25:55 GMT 44.688240 16.400108 36,950 138 473 0
2019-09-19 15:25:52 GMT 44.698975 16.386827 36,950 138 473 0
2019-09-19 15:25:48 GMT 44.698975 16.386827 36,950 138 473 0
2019-09-19 15:25:41 GMT 44.717239 16.364136 36,975 138 473 0
2019-09-19 15:25:37 GMT 44.717239 16.364136 36,975 138 473 0
2019-09-19 15:25:30 GMT 44.729050 16.349487 36,975 138 473 0
2019-09-19 15:25:27 GMT 44.733906 16.343435 36,975 138 473 0
2019-09-19 15:25:21 GMT 44.742920 16.332157 36,975 138 472 0
2019-09-19 15:25:16 GMT 44.751846 16.320974 36,975 138 472 0
2019-09-19 15:25:09 GMT 44.763062 16.306980 36,975 138 472 0
2019-09-19 15:25:05 GMT 44.770405 16.297815 36,975 138 472 0
2019-09-19 15:24:59 GMT 44.780411 16.285336 36,975 138 472 -64
2019-09-19 15:24:56 GMT 44.785172 16.279320 37,050 138 473 -64
2019-09-19 15:24:53 GMT 44.789658 16.273760 36,975 138 471 -64
2019-09-19 15:24:49 GMT 44.797119 16.264408 36,975 138 471 -128
2019-09-19 15:24:42 GMT 44.807419 16.251459 37,000 138 471 -128
2019-09-19 15:24:37 GMT 44.814957 16.242014 37,000 138 471 -128
2019-09-19 15:24:33 GMT 44.822357 16.232769 37,025 138 471 -128
2019-09-19 15:24:28 GMT 44.829338 16.223993 37,025 138 471 -128
2019-09-19 15:24:21 GMT 44.841721 16.208517 37,050 138 473 -64
2019-09-19 15:24:16 GMT 44.849823 16.198336 37,050 138 471 -64
2019-09-19 15:24:12 GMT 44.857410 16.188824 37,050 138 473 -128
2019-09-19 15:24:08 GMT 44.862949 16.181856 37,050 138 473 -64
2019-09-19 15:23:59 GMT 44.876682 16.164640 37,050 138 473 0
2019-09-19 15:23:56 GMT 44.881290 16.158812 37,050 138 473 0
2019-09-19 15:23:49 GMT 44.892975 16.144213 37,050 138 474 0
2019-09-19 15:23:46 GMT 44.898655 16.137108 37,075 138 474 0
2019-09-19 15:23:42 GMT 44.907547 16.125986 37,075 138 476 0
2019-09-19 15:23:39 GMT 44.910713 16.121967 37,075 138 475 0
2019-09-19 15:23:35 GMT 44.916275 16.114983 37,075 138 475 0
2019-09-19 15:23:32 GMT 44.921841 16.107967 37,075 138 478 128
2019-09-19 15:23:29 GMT 44.927334 16.101133 37,075 138 476 0
2019-09-19 15:23:25 GMT 44.933430 16.093496 37,050 138 477 64
2019-09-19 15:23:20 GMT 44.942459 16.082088 37,050 138 477 64
2019-09-19 15:23:14 GMT 44.951588 16.070654 37,050 138 478 128
2019-09-19 15:23:08 GMT 44.960724 16.059200 37,050 138 479 128
2019-09-19 15:23:05 GMT 44.965504 16.053169 37,025 138 478 128
2019-09-19 15:22:58 GMT 44.976864 16.038767 37,025 138 479 128
2019-09-19 15:22:55 GMT 44.982925 16.031212 37,025 138 480 0
2019-09-19 15:22:45 GMT 45.000744 16.008688 37,025 138 480 -64
2019-09-19 15:22:34 GMT 45.017899 15.987004 37,025 138 480 0
2019-09-19 15:22:27 GMT 45.035847 15.964341 37,025 138 480 64
2019-09-19 15:22:23 GMT 45.035847 15.964341 37,025 138 480 64
2019-09-19 15:22:14 GMT 45.050491 15.945805 37,025 138 480 0
2019-09-19 15:22:10 GMT 45.066971 15.924879 37,025 137 480 -64
2019-09-19 15:22:04 GMT 45.066971 15.924879 37,025 138 480 0
2019-09-19 15:22:01 GMT 45.085003 15.902107 37,025 138 480 0
2019-09-19 15:21:53 GMT 45.093796 15.890939 37,025 138 480 0
2019-09-19 15:21:49 GMT 45.093796 15.890939 37,025 138 480 0
2019-09-19 15:21:42 GMT 45.107758 15.873217 37,025 138 480 64
2019-09-19 15:21:39 GMT 45.119221 15.858698 37,025 137 480 0
2019-09-19 15:21:32 GMT 45.119221 15.858698 37,025 138 480 64
2019-09-19 15:21:29 GMT 45.136909 15.836189 37,000 137 480 64
2019-09-19 15:21:22 GMT 45.136909 15.836189 37,000 137 480 64
2019-09-19 15:21:19 GMT 45.141907 15.829860 37,000 137 480 0
2019-09-19 15:21:10 GMT 45.155296 15.812810 37,000 137 480 -64
2019-09-19 15:21:07 GMT 45.160858 15.805729 37,025 137 479 64
2019-09-19 15:21:00 GMT 45.171871 15.791641 37,025 137 480 64
2019-09-19 15:20:57 GMT 45.176758 15.785411 37,000 137 479 64
2019-09-19 15:20:51 GMT 45.188072 15.770941 37,000 137 479 64
2019-09-19 15:20:48 GMT 45.192123 15.765839 37,000 138 480 0
2019-09-19 15:20:45 GMT 45.197433 15.759038 37,000 138 480 0
2019-09-19 15:20:39 GMT 45.206367 15.747629 37,000 138 480 0
2019-09-19 15:20:36 GMT 45.213394 15.738719 37,000 138 480 -64
2019-09-19 15:20:30 GMT 45.221775 15.728068 37,000 137 480 0
2019-09-19 15:20:24 GMT 45.231308 15.715877 37,000 137 479 64
2019-09-19 15:20:21 GMT 45.237976 15.707368 37,000 137 479 64
2019-09-19 15:20:14 GMT 45.250172 15.691759 37,000 137 480 64
2019-09-19 15:20:11 GMT 45.252453 15.688812 37,000 137 480 64
2019-09-19 15:20:08 GMT 45.257767 15.682068 36,975 137 480 64
2019-09-19 15:20:04 GMT 45.265182 15.672586 36,975 137 479 64
2019-09-19 15:20:01 GMT 45.270172 15.666177 36,975 137 479 64
2019-09-19 15:19:58 GMT 45.274239 15.660944 36,975 137 479 64
2019-09-19 15:19:54 GMT 45.282761 15.650090 36,975 137 479 0
2019-09-19 15:19:51 GMT 45.287292 15.644335 36,975 137 479 -64
2019-09-19 15:19:47 GMT 45.292255 15.637966 36,975 137 479 -64
2019-09-19 15:19:43 GMT 45.299698 15.628444 37,000 137 479 -64
2019-09-19 15:19:39 GMT 45.307617 15.618338 37,000 137 478 -64
2019-09-19 15:19:36 GMT 45.311062 15.613917 37,000 137 478 0
2019-09-19 15:19:31 GMT 45.319153 15.603529 37,000 137 478 0
2019-09-19 15:19:28 GMT 45.324936 15.596098 37,000 137 478 0
2019-09-19 15:19:23 GMT 45.331284 15.587965 37,000 137 477 0
2019-09-19 15:19:20 GMT 45.336685 15.581033 37,000 137 478 -64
2019-09-19 15:19:17 GMT 45.342270 15.573774 37,000 137 478 -64
2019-09-19 15:19:11 GMT 45.352119 15.561196 37,000 137 478 0
2019-09-19 15:19:08 GMT 45.361431 15.549138 37,000 137 478 0
2019-09-19 15:19:05 GMT 45.361431 15.549138 37,000 137 478 0
2019-09-19 15:19:00 GMT 45.370239 15.537872 37,000 137 479 0
2019-09-19 15:18:57 GMT 45.379532 15.525970 37,000 137 479 0
2019-09-19 15:18:48 GMT 45.389038 15.513700 37,025 137 479 0
2019-09-19 15:18:45 GMT 45.394775 15.506352 37,000 137 479 0
2019-09-19 15:18:38 GMT 45.412174 15.483890 37,025 137 479 -64
2019-09-19 15:18:35 GMT 45.412174 15.483890 37,025 137 479 -64
2019-09-19 15:18:28 GMT 45.422333 15.470843 37,025 137 479 -64
2019-09-19 15:18:24 GMT 45.428879 15.462341 37,025 137 479 0
2019-09-19 15:18:17 GMT 45.439545 15.448608 37,025 137 479 0
2019-09-19 15:18:12 GMT 45.457237 15.425810 37,050 137 480 -64
2019-09-19 15:18:07 GMT 45.457237 15.425810 37,025 137 480 -64
2019-09-19 15:18:03 GMT 45.463844 15.417235 37,050 137 480 -64
2019-09-19 15:18:00 GMT 45.481537 15.394458 37,050 137 480 -64
2019-09-19 15:17:52 GMT 45.481537 15.394458 37,050 137 480 0
2019-09-19 15:17:49 GMT 45.485725 15.388965 37,050 137 481 0
2019-09-19 15:17:45 GMT 45.493195 15.379355 37,050 137 481 0
2019-09-19 15:17:41 GMT 45.499458 15.371213 37,050 137 481 0
2019-09-19 15:17:38 GMT 45.504318 15.364968 37,050 137 481 0
2019-09-19 15:17:35 GMT 45.514893 15.351301 37,050 137 481 0
2019-09-19 15:17:28 GMT 45.521805 15.342407 37,050 137 481 0
2019-09-19 15:17:25 GMT 45.527939 15.334429 37,050 137 481 64
2019-09-19 15:17:22 GMT 45.532372 15.328741 37,050 137 481 64
2019-09-19 15:17:18 GMT 45.536362 15.323574 37,025 137 482 0
2019-09-19 15:17:14 GMT 45.552200 15.302950 37,025 137 482 0
2019-09-19 15:17:10 GMT 45.552200 15.302950 37,050 137 482 0
2019-09-19 15:17:05 GMT 45.560257 15.292488 37,050 137 482 64
2019-09-19 15:17:02 GMT 45.562817 15.289192 37,050 137 482 64
2019-09-19 15:16:58 GMT 45.572311 15.276833 37,025 137 482 64
2019-09-19 15:16:55 GMT 45.574493 15.274011 37,025 137 482 64
2019-09-19 15:16:52 GMT 45.590286 15.253445 37,025 137 482 64
2019-09-19 15:16:47 GMT 45.590286 15.253445 37,025 137 482 0
2019-09-19 15:16:41 GMT 45.597591 15.244011 37,025 137 482 0
2019-09-19 15:16:37 GMT 45.604855 15.234604 37,025 137 482 0
2019-09-19 15:16:33 GMT 45.611526 15.225912 37,025 137 482 0
2019-09-19 15:16:30 GMT 45.618122 15.217300 37,025 137 482 0
2019-09-19 15:16:27 GMT 45.622284 15.211844 37,025 137 482 0
2019-09-19 15:16:23 GMT 45.632458 15.198555 37,025 137 481 64
2019-09-19 15:16:20 GMT 45.632458 15.198555 37,000 137 480 0
2019-09-19 15:16:13 GMT 45.644703 15.182625 37,000 137 481 64
2019-09-19 15:16:10 GMT 45.649731 15.176102 37,000 137 481 64
2019-09-19 15:16:07 GMT 45.653915 15.170645 37,000 137 481 0
2019-09-19 15:16:01 GMT 45.664349 15.156944 37,000 137 481 0
2019-09-19 15:15:58 GMT 45.668198 15.151955 37,000 137 480 0
2019-09-19 15:15:53 GMT 45.676777 15.140739 37,000 137 481 0
2019-09-19 15:15:50 GMT 45.681152 15.135040 37,000 137 481 0
2019-09-19 15:15:46 GMT 45.688385 15.125628 37,000 137 481 0
2019-09-19 15:15:41 GMT 45.697586 15.113570 37,000 137 481 0
2019-09-19 15:15:36 GMT 45.712109 15.094597 37,000 137 479 64
2019-09-19 15:15:33 GMT 45.712109 15.094597 37,000 137 480 64
2019-09-19 15:15:30 GMT 45.715416 15.090271 37,000 137 480 64
2019-09-19 15:15:27 GMT 45.719421 15.085032 37,000 137 479 64
2019-09-19 15:15:24 GMT 45.726448 15.075851 37,000 137 480 0
2019-09-19 15:15:19 GMT 45.733200 15.067012 37,000 137 480 0
2019-09-19 15:15:16 GMT 45.738876 15.059578 37,000 137 479 64
2019-09-19 15:15:13 GMT 45.743767 15.053123 37,000 137 480 0
2019-09-19 15:15:09 GMT 45.750916 15.043767 37,000 137 480 0
2019-09-19 15:15:04 GMT 45.756382 15.036644 37,000 137 479 0
2019-09-19 15:15:01 GMT 45.761082 15.030533 37,000 137 479 64
2019-09-19 15:14:58 GMT 45.766022 15.024005 37,000 137 479 64
2019-09-19 15:14:54 GMT 45.775143 15.012062 37,000 137 479 0
2019-09-19 15:14:51 GMT 45.777786 15.008597 37,000 137 479 0
2019-09-19 15:14:48 GMT 45.782639 15.002233 37,000 137 479 0
2019-09-19 15:14:45 GMT 45.789139 14.993725 37,000 137 479 0
2019-09-19 15:14:38 GMT 45.799767 14.979790 37,000 137 479 0
2019-09-19 15:14:34 GMT 45.808548 14.968269 37,000 137 479 0
2019-09-19 15:14:31 GMT 45.812531 14.963044 37,000 137 478 0
2019-09-19 15:14:27 GMT 45.817429 14.956613 37,000 137 478 0
2019-09-19 15:14:23 GMT 45.824162 14.947723 37,000 137 478 64
2019-09-19 15:14:19 GMT 45.833008 14.936050 37,000 137 478 64
2019-09-19 15:14:16 GMT 45.841461 14.924927 36,975 137 478 0
2019-09-19 15:14:12 GMT 45.841461 14.924927 36,975 137 478 0
2019-09-19 15:14:09 GMT 45.848042 14.916275 37,000 137 478 0
2019-09-19 15:14:06 GMT 45.859447 14.901237 37,000 137 478 -64
2019-09-19 15:14:01 GMT 45.859447 14.901237 37,000 137 478 -64
2019-09-19 15:13:58 GMT 45.866756 14.891624 37,000 137 479 -64
2019-09-19 15:13:50 GMT 45.877880 14.876930 37,000 137 478 0
2019-09-19 15:13:44 GMT 45.888977 14.862291 37,000 137 477 0
2019-09-19 15:13:41 GMT 45.894241 14.855324 37,000 137 477 64
2019-09-19 15:13:34 GMT 45.903439 14.843147 37,000 137 479 -64
2019-09-19 15:13:29 GMT 45.913120 14.830376 37,000 137 479 0
2019-09-19 15:13:24 GMT 45.920383 14.820763 37,050 137 479 -64
2019-09-19 15:13:21 GMT 45.925972 14.813347 37,000 137 479 -64
2019-09-19 15:13:18 GMT 45.929134 14.809158 37,025 137 479 -64
2019-09-19 15:13:13 GMT 45.937317 14.798316 37,050 137 479 -128
2019-09-19 15:13:10 GMT 45.951233 14.779894 37,050 137 479 -128
2019-09-19 15:13:02 GMT 45.955902 14.773659 37,050 137 479 -64
2019-09-19 15:12:58 GMT 45.962311 14.765223 37,050 137 479 -64
2019-09-19 15:12:52 GMT 45.974060 14.749626 37,050 137 478 0
2019-09-19 15:12:48 GMT 45.978745 14.743384 37,050 137 479 0
2019-09-19 15:12:45 GMT 45.984009 14.736417 37,050 137 481 0
2019-09-19 15:12:40 GMT 45.993759 14.723421 37,050 137 481 0
2019-09-19 15:12:37 GMT 45.997055 14.719070 37,050 137 481 64
2019-09-19 15:12:33 GMT 46.009323 14.702722 37,050 137 481 64
2019-09-19 15:12:30 GMT 46.009323 14.702722 37,025 137 481 128
2019-09-19 15:12:26 GMT 46.014095 14.696480 37,050 137 481 64
2019-09-19 15:12:20 GMT 46.023788 14.683562 37,025 137 481 128
2019-09-19 15:12:16 GMT 46.032249 14.672310 37,025 137 482 128
2019-09-19 15:12:13 GMT 46.036972 14.665944 37,025 137 482 64
2019-09-19 15:12:10 GMT 46.041000 14.660585 37,025 137 483 64
2019-09-19 15:12:05 GMT 46.048916 14.650063 37,000 137 483 64
2019-09-19 15:12:02 GMT 46.053802 14.643539 37,000 137 483 64
2019-09-19 15:11:59 GMT 46.058739 14.636948 37,000 137 483 64
2019-09-19 15:11:55 GMT 46.065857 14.627425 37,000 137 483 64
2019-09-19 15:11:52 GMT 46.070068 14.621865 37,000 137 484 64
2019-09-19 15:11:47 GMT 46.080048 14.608534 37,000 137 483 64
2019-09-19 15:11:44 GMT 46.082977 14.604582 37,000 137 483 64
2019-09-19 15:11:41 GMT 46.088608 14.597012 37,000 137 483 64
2019-09-19 15:11:38 GMT 46.092819 14.591452 37,000 137 483 64
2019-09-19 15:11:34 GMT 46.100353 14.581329 37,000 137 484 64
2019-09-19 15:11:30 GMT 46.107758 14.571510 37,000 137 484 64
2019-09-19 15:11:27 GMT 46.110363 14.568008 37,000 137 484 64
2019-09-19 15:11:23 GMT 46.117905 14.557983 37,000 137 484 0
2019-09-19 15:11:19 GMT 46.125542 14.547752 36,975 137 484 64
2019-09-19 15:11:16 GMT 46.135643 14.534294 36,975 137 484 0
2019-09-19 15:11:13 GMT 46.135643 14.534294 36,975 137 484 0
2019-09-19 15:11:08 GMT 46.142624 14.524931 36,975 137 484 0
2019-09-19 15:11:04 GMT 46.150211 14.514793 36,975 137 484 0
2019-09-19 15:11:00 GMT 46.154892 14.508518 36,975 137 484 0
2019-09-19 15:10:56 GMT 46.161621 14.499541 36,975 137 484 -64
2019-09-19 15:10:53 GMT 46.167252 14.491997 37,000 137 483 0
2019-09-19 15:10:49 GMT 46.172745 14.484650 37,000 137 484 -64
2019-09-19 15:10:45 GMT 46.179913 14.475037 37,000 136 487 64
2019-09-19 15:10:42 GMT 46.184555 14.468793 37,000 136 487 64
2019-09-19 15:10:39 GMT 46.188812 14.463099 37,000 137 483 0
2019-09-19 15:10:36 GMT 46.193974 14.456223 37,000 137 483 -64
2019-09-19 15:10:33 GMT 46.199047 14.449356 37,000 137 483 -64
2019-09-19 15:10:30 GMT 46.206161 14.439787 37,000 137 483 -64
2019-09-19 15:10:23 GMT 46.215363 14.427460 37,000 137 483 -64
2019-09-19 15:10:19 GMT 46.223347 14.416740 37,000 137 483 0
2019-09-19 15:10:16 GMT 46.227310 14.411383 37,000 137 483 -64
2019-09-19 15:10:13 GMT 46.237034 14.398338 37,025 136 484 -64
2019-09-19 15:10:05 GMT 46.245529 14.386865 37,025 136 484 -64
2019-09-19 15:10:02 GMT 46.251930 14.378220 37,025 136 484 -64
2019-09-19 15:09:58 GMT 46.256447 14.372177 37,025 136 484 -128
2019-09-19 15:09:51 GMT 46.273296 14.349518 37,050 137 483 -64
2019-09-19 15:09:48 GMT 46.273296 14.349518 37,050 137 483 -64
2019-09-19 15:09:45 GMT 46.277481 14.343857 37,050 137 483 -64
2019-09-19 15:09:41 GMT 46.285767 14.332737 37,050 136 487 64
2019-09-19 15:09:35 GMT 46.294338 14.321159 37,050 136 484 0
2019-09-19 15:09:31 GMT 46.306549 14.304735 37,050 136 487 64
2019-09-19 15:09:28 GMT 46.306549 14.304735 37,050 136 486 64
2019-09-19 15:09:24 GMT 46.313610 14.295135 37,050 136 486 64
2019-09-19 15:09:20 GMT 46.319550 14.287117 37,050 136 486 128
2019-09-19 15:09:17 GMT 46.325272 14.279413 37,050 136 486 64
2019-09-19 15:09:14 GMT 46.327744 14.276064 37,050 136 487 64
2019-09-19 15:09:11 GMT 46.334045 14.267601 37,050 136 486 64
2019-09-19 15:09:08 GMT 46.338982 14.260941 37,025 136 487 64
2019-09-19 15:09:05 GMT 46.343079 14.255379 37,025 136 487 128
2019-09-19 15:09:02 GMT 46.347794 14.249000 37,025 136 487 128
2019-09-19 15:08:59 GMT 46.353600 14.241165 37,025 136 487 64
2019-09-19 15:08:55 GMT 46.359467 14.233190 37,025 136 487 64
2019-09-19 15:08:52 GMT 46.371872 14.216443 37,025 136 488 0
2019-09-19 15:08:48 GMT 46.371872 14.216443 37,025 136 488 0
2019-09-19 15:08:44 GMT 46.378235 14.207868 37,025 136 488 0
2019-09-19 15:08:41 GMT 46.385147 14.198489 37,025 136 488 0
2019-09-19 15:08:38 GMT 46.388397 14.194068 37,025 136 488 0
2019-09-19 15:08:35 GMT 46.393295 14.187436 37,025 136 488 0
2019-09-19 15:08:31 GMT 46.398243 14.180672 37,025 136 488 0
2019-09-19 15:08:28 GMT 46.404373 14.172363 37,025 136 488 0
2019-09-19 15:08:25 GMT 46.410767 14.163712 37,025 136 488 0
2019-09-19 15:08:21 GMT 46.417191 14.154946 37,025 136 488 64
2019-09-19 15:08:17 GMT 46.422318 14.148046 37,025 136 488 0
2019-09-19 15:08:13 GMT 46.428131 14.140141 37,025 136 488 0
2019-09-19 15:08:10 GMT 46.434505 14.131439 37,025 136 488 64
2019-09-19 15:08:07 GMT 46.438614 14.125872 37,025 136 488 64
2019-09-19 15:08:04 GMT 46.444336 14.118102 37,025 136 488 64
2019-09-19 15:07:59 GMT 46.452850 14.106514 37,025 136 488 64
2019-09-19 15:07:56 GMT 46.456062 14.102188 37,025 136 488 64
2019-09-19 15:07:53 GMT 46.467087 14.087286 37,025 136 489 0
2019-09-19 15:07:50 GMT 46.467087 14.087286 37,025 136 489 0
2019-09-19 15:07:47 GMT 46.473816 14.078109 37,025 136 489 -64
2019-09-19 15:07:44 GMT 46.476265 14.074791 37,025 136 489 -64
2019-09-19 15:07:41 GMT 46.481003 14.068328 37,025 136 489 0
2019-09-19 15:07:38 GMT 46.492836 14.052269 37,025 136 489 0
2019-09-19 15:07:34 GMT 46.492836 14.052269 37,025 136 489 0
2019-09-19 15:07:31 GMT 46.497482 14.045954 37,025 136 489 0
2019-09-19 15:07:27 GMT 46.503777 14.037369 37,025 136 488 0
2019-09-19 15:07:24 GMT 46.509567 14.029407 37,025 136 489 0
2019-09-19 15:07:20 GMT 46.515884 14.020765 37,025 136 489 -64
2019-09-19 15:07:17 GMT 46.521420 14.013199 37,025 136 489 -64
2019-09-19 15:07:14 GMT 46.525681 14.007367 37,025 136 489 -64
2019-09-19 15:07:11 GMT 46.530533 14.000735 37,025 136 488 0
2019-09-19 15:07:07 GMT 46.539017 13.989098 37,025 136 488 0
2019-09-19 15:07:03 GMT 46.546001 13.979553 37,025 136 488 0
2019-09-19 15:07:00 GMT 46.548431 13.976217 37,025 136 489 64
2019-09-19 15:06:56 GMT 46.557358 13.964025 37,000 136 489 64
2019-09-19 15:06:50 GMT 46.565598 13.952705 37,000 136 490 0
2019-09-19 15:06:46 GMT 46.571503 13.944598 37,000 136 490 0
2019-09-19 15:06:43 GMT 46.576218 13.938167 37,025 136 489 64
2019-09-19 15:06:40 GMT 46.581207 13.931334 37,025 136 489 0
2019-09-19 15:06:37 GMT 46.586918 13.923523 37,000 136 489 0
2019-09-19 15:06:34 GMT 46.592972 13.915215 36,750 136 485 320
2019-09-19 15:06:31 GMT 46.597115 13.909515 37,000 136 490 0
2019-09-19 15:06:26 GMT 46.604324 13.899648 37,025 136 489 0
2019-09-19 15:06:23 GMT 46.611267 13.890083 37,025 136 489 0
2019-09-19 15:06:20 GMT 46.615456 13.884384 37,025 136 489 0
2019-09-19 15:06:16 GMT 46.621994 13.875397 37,025 136 488 -64
2019-09-19 15:06:13 GMT 46.628448 13.866488 37,025 136 488 -64
2019-09-19 15:06:10 GMT 46.630920 13.863138 37,025 136 488 -64
2019-09-19 15:06:06 GMT 46.637474 13.854103 37,025 136 488 -64
2019-09-19 15:06:03 GMT 46.649624 13.837418 37,025 136 488 0
2019-09-19 15:05:59 GMT 46.649624 13.837418 37,025 136 487 0
2019-09-19 15:05:55 GMT 46.656235 13.828285 37,025 136 486 64
2019-09-19 15:05:51 GMT 46.667873 13.812218 37,000 136 487 64
2019-09-19 15:05:44 GMT 46.673447 13.804455 37,000 136 487 64
2019-09-19 15:05:40 GMT 46.681915 13.792732 36,725 136 487 0
2019-09-19 15:05:32 GMT 46.693085 13.777257 37,000 136 487 0
2019-09-19 15:05:29 GMT 46.699905 13.767812 37,000 136 487 0
2019-09-19 15:05:22 GMT 46.709583 13.754265 37,000 135 486 0
2019-09-19 15:05:18 GMT 46.716568 13.744514 36,975 136 485 320
2019-09-19 15:05:15 GMT 46.721455 13.737648 37,000 136 485 576
2019-09-19 15:05:11 GMT 46.727417 13.729293 36,975 136 484 640
2019-09-19 15:05:07 GMT 46.735474 13.717971 36,875 137 484 576
2019-09-19 15:05:04 GMT 46.738815 13.713349 36,900 136 484 576
2019-09-19 15:05:01 GMT 46.745430 13.704277 36,875 137 484 576
2019-09-19 15:04:58 GMT 46.747971 13.700956 36,875 137 484 576
2019-09-19 15:04:55 GMT 46.753326 13.693788 36,825 138 484 576
2019-09-19 15:04:51 GMT 46.759254 13.686081 36,800 138 483 512
2019-09-19 15:04:48 GMT 46.767242 13.675701 36,700 138 483 448
2019-09-19 15:04:43 GMT 46.773968 13.666992 36,725 138 483 384
2019-09-19 15:04:36 GMT 46.785736 13.651719 36,700 138 481 192
2019-09-19 15:04:33 GMT 46.798733 13.634789 36,650 138 481 192
2019-09-19 15:04:28 GMT 46.798733 13.634789 36,600 138 480 320
2019-09-19 15:04:25 GMT 46.803543 13.628540 36,600 138 480 320
2019-09-19 15:04:22 GMT 46.809998 13.620163 36,650 138 480 256
2019-09-19 15:04:16 GMT 46.818192 13.609589 36,600 138 480 320
2019-09-19 15:04:11 GMT 46.826710 13.598534 36,600 138 480 384
2019-09-19 15:04:05 GMT 46.836594 13.585801 36,525 138 478 576
2019-09-19 15:04:01 GMT 46.843376 13.576973 36,475 138 478 512
2019-09-19 15:03:54 GMT 46.853989 13.563158 36,450 138 478 576
2019-09-19 15:03:50 GMT 46.861267 13.553712 36,400 138 478 576
2019-09-19 15:03:47 GMT 46.865303 13.548409 36,350 138 478 576
2019-09-19 15:03:43 GMT 46.873028 13.538325 36,325 138 478 576
2019-09-19 15:03:38 GMT 46.881958 13.526642 36,300 138 478 512
2019-09-19 15:03:34 GMT 46.888870 13.517647 36,175 138 476 448
2019-09-19 15:03:31 GMT 46.893173 13.512016 36,150 138 478 448
2019-09-19 15:03:28 GMT 46.898209 13.505424 36,200 138 478 512
2019-09-19 15:03:24 GMT 46.905258 13.496223 36,150 138 478 448
2019-09-19 15:03:21 GMT 46.909527 13.490648 36,125 138 477 960
2019-09-19 15:03:17 GMT 46.917664 13.480087 36,125 138 478 384
2019-09-19 15:03:14 GMT 46.921783 13.474731 36,075 138 478 384
2019-09-19 15:03:07 GMT 46.934280 13.458389 36,000 138 477 448
2019-09-19 15:03:02 GMT 46.941696 13.448776 35,975 138 476 448
2019-09-19 15:02:55 GMT 46.951611 13.435786 35,975 138 475 448
2019-09-19 15:02:52 GMT 46.955795 13.430374 35,950 138 475 448
2019-09-19 15:02:49 GMT 46.962132 13.422053 35,925 138 475 448
2019-09-19 15:02:46 GMT 46.966881 13.415856 35,900 138 474 448
2019-09-19 15:02:40 GMT 46.976074 13.403870 35,725 138 473 832
2019-09-19 15:02:34 GMT 46.992874 13.381828 35,775 138 473 704
2019-09-19 15:02:27 GMT 46.997787 13.375432 35,725 138 473 704
2019-09-19 15:02:24 GMT 47.003494 13.367958 35,625 138 473 832
2019-09-19 15:02:19 GMT 47.010727 13.358482 35,625 138 473 896
2019-09-19 15:02:16 GMT 47.015213 13.352646 35,575 138 473 960
2019-09-19 15:02:12 GMT 47.022511 13.343036 35,400 138 474 896
2019-09-19 15:02:07 GMT 47.031601 13.331154 35,400 137 475 960
2019-09-19 15:02:01 GMT 47.039795 13.320305 35,325 137 475 1024
2019-09-19 15:01:58 GMT 47.044785 13.313713 35,250 138 475 1024
2019-09-19 15:01:51 GMT 47.057877 13.296547 35,125 137 476 960
2019-09-19 15:01:47 GMT 47.061813 13.291397 35,025 138 477 960
2019-09-19 15:01:44 GMT 47.067387 13.284020 35,025 138 478 960
2019-09-19 15:01:40 GMT 47.076462 13.272102 34,950 138 477 960
2019-09-19 15:01:37 GMT 47.079025 13.268738 34,900 138 478 960
2019-09-19 15:01:34 GMT 47.085617 13.260086 34,775 138 478 960
2019-09-19 15:01:30 GMT 47.092209 13.251366 34,800 138 478 960
2019-09-19 15:01:26 GMT 47.099213 13.242165 34,725 138 478 1024
2019-09-19 15:01:20 GMT 47.108276 13.230286 34,625 138 478 1024
2019-09-19 15:01:17 GMT 47.113796 13.222961 34,575 138 480 1024
2019-09-19 15:01:14 GMT 47.116425 13.219574 34,575 138 479 1024
2019-09-19 15:01:09 GMT 47.125435 13.207679 34,475 138 479 1024
2019-09-19 15:01:06 GMT 47.131897 13.199181 34,400 138 480 1024
2019-09-19 15:01:03 GMT 47.136017 13.193756 34,325 138 480 960
2019-09-19 15:00:57 GMT 47.145405 13.181411 34,300 138 480 960
2019-09-19 15:00:54 GMT 47.150200 13.175002 34,225 137 480 896
2019-09-19 15:00:51 GMT 47.155228 13.168452 34,125 138 480 896
2019-09-19 15:00:47 GMT 47.162724 13.158452 34,100 137 480 960
2019-09-19 15:00:43 GMT 47.167007 13.152818 34,075 137 480 960
2019-09-19 15:00:40 GMT 47.173096 13.144730 34,025 137 480 896
2019-09-19 15:00:36 GMT 47.181530 13.133662 33,925 137 480 960
2019-09-19 15:00:33 GMT 47.184792 13.129296 33,850 137 480 896
2019-09-19 15:00:30 GMT 47.191086 13.120903 33,650 137 480 960
2019-09-19 15:00:27 GMT 47.193558 13.117676 33,800 137 480 960
2019-09-19 15:00:24 GMT 47.201202 13.107513 33,725 137 480 1024
2019-09-19 15:00:20 GMT 47.205963 13.101196 33,475 137 480 1024
2019-09-19 15:00:17 GMT 47.210907 13.094673 33,575 137 480 1024
2019-09-19 15:00:13 GMT 47.216583 13.087182 33,500 137 480 1024
2019-09-19 15:00:10 GMT 47.223705 13.077674 33,500 137 480 1088
2019-09-19 15:00:07 GMT 47.228409 13.071477 33,400 137 480 1088
2019-09-19 15:00:04 GMT 47.236542 13.060684 33,275 137 480 1088
2019-09-19 14:59:56 GMT 47.246796 13.047157 33,175 137 481 1024
2019-09-19 14:59:51 GMT 47.254074 13.037476 33,125 137 482 960
2019-09-19 14:59:48 GMT 47.259972 13.029715 33,125 137 482 960
2019-09-19 14:59:45 GMT 47.264191 13.024017 33,100 137 482 1024
2019-09-19 14:59:40 GMT 47.273193 13.012108 32,975 137 484 1024
2019-09-19 14:59:37 GMT 47.277191 13.006783 32,975 137 484 1024
2019-09-19 14:59:34 GMT 47.282223 13.000136 32,925 137 485 1024
2019-09-19 14:59:31 GMT 47.294128 12.984329 32,500 137 491 1024
2019-09-19 14:59:28 GMT 47.294128 12.984329 32,750 137 487 1088
2019-09-19 14:59:25 GMT 47.297398 12.979995 32,725 137 491 1024
2019-09-19 14:59:19 GMT 47.308685 12.964966 31,400 137 494 896
2019-09-19 14:59:13 GMT 47.316158 12.955064 32,550 137 491 1024
2019-09-19 14:59:10 GMT 47.323467 12.945275 32,450 137 492 960
2019-09-19 14:59:07 GMT 47.333057 12.932528 32,375 137 494 1024
2019-09-19 14:59:04 GMT 47.333057 12.932528 32,375 137 494 1024
2019-09-19 14:59:01 GMT 47.337204 12.926994 32,325 137 494 1024
2019-09-19 14:58:57 GMT 47.345306 12.916145 32,250 137 494 1024
2019-09-19 14:58:53 GMT 47.350422 12.909288 32,200 137 494 1024
2019-09-19 14:58:49 GMT 47.357777 12.899499 32,100 137 494 1024
2019-09-19 14:58:46 GMT 47.367832 12.886047 32,050 137 494 960
2019-09-19 14:58:43 GMT 47.367832 12.886047 32,025 137 494 960
2019-09-19 14:58:39 GMT 47.374584 12.877033 31,925 137 495 0
2019-09-19 14:58:36 GMT 47.379913 12.869934 31,925 137 494 960
2019-09-19 14:58:33 GMT 47.385475 12.862525 31,850 137 495 960
2019-09-19 14:58:28 GMT 47.393856 12.851328 31,775 137 493 896
2019-09-19 14:58:22 GMT 47.402885 12.839285 31,700 137 494 896
2019-09-19 14:58:17 GMT 47.412430 12.826468 31,575 137 494 896
2019-09-19 14:58:14 GMT 47.418156 12.818862 31,575 137 494 960
2019-09-19 14:58:11 GMT 47.421661 12.814110 31,500 137 494 960
2019-09-19 14:58:07 GMT 47.428352 12.805129 31,050 137 494 256
2019-09-19 14:58:04 GMT 47.434067 12.797493 31,025 137 495 0
2019-09-19 14:58:01 GMT 47.438187 12.791931 31,375 137 493 960
2019-09-19 14:57:56 GMT 47.446411 12.780903 31,250 137 494 1024
2019-09-19 14:57:53 GMT 47.452141 12.773226 31,250 137 494 1024
2019-09-19 14:57:50 GMT 47.459381 12.763573 31,150 137 494 1024
2019-09-19 14:57:45 GMT 47.465126 12.755761 31,025 137 495 -64
2019-09-19 14:57:41 GMT 47.472519 12.745857 31,050 137 494 640
2019-09-19 14:57:38 GMT 47.476913 12.739952 31,050 137 494 448
2019-09-19 14:57:32 GMT 47.488724 12.724091 31,025 137 494 0
2019-09-19 14:57:29 GMT 47.492779 12.718647 31,025 137 494 0
2019-09-19 14:57:26 GMT 47.497009 12.712967 31,025 137 494 0
2019-09-19 14:57:23 GMT 47.502090 12.706111 31,025 137 495 -64
2019-09-19 14:57:20 GMT 47.508408 12.697586 31,025 137 495 -64
2019-09-19 14:57:17 GMT 47.513306 12.690994 31,025 137 495 -64
2019-09-19 14:57:13 GMT 47.519165 12.683167 31,025 137 495 0
2019-09-19 14:57:10 GMT 47.531296 12.666756 31,025 137 495 0
2019-09-19 14:57:06 GMT 47.531296 12.666756 31,025 137 494 0
2019-09-19 14:57:02 GMT 47.543976 12.649727 31,025 137 494 0
2019-09-19 14:56:59 GMT 47.543976 12.649727 31,025 137 494 0
2019-09-19 14:56:55 GMT 47.550083 12.641461 31,025 137 494 0
2019-09-19 14:56:52 GMT 47.554871 12.635101 31,025 137 494 0
2019-09-19 14:56:49 GMT 47.568100 12.617234 31,025 137 494 0
2019-09-19 14:56:46 GMT 47.568100 12.617234 31,025 137 494 0
2019-09-19 14:56:41 GMT 47.572803 12.610896 31,025 137 494 0
2019-09-19 14:56:38 GMT 47.580112 12.601037 31,025 137 494 0
2019-09-19 14:56:35 GMT 47.583801 12.596031 31,025 137 494 0
2019-09-19 14:56:32 GMT 47.588074 12.590332 31,025 137 494 0
2019-09-19 14:56:29 GMT 47.594868 12.581177 31,025 140 496 0
2019-09-19 14:56:26 GMT 47.598907 12.575706 31,025 137 494 0
2019-09-19 14:56:23 GMT 47.605434 12.566810 31,025 137 494 0
2019-09-19 14:56:17 GMT 47.619690 12.547691 31,025 137 495 0
2019-09-19 14:56:11 GMT 47.623947 12.541992 31,025 140 496 0
2019-09-19 14:56:08 GMT 47.630173 12.534027 31,025 139 495 0
2019-09-19 14:56:05 GMT 47.636124 12.526474 31,025 139 496 0
2019-09-19 14:56:02 GMT 47.639790 12.521879 31,025 140 496 0
2019-09-19 14:55:59 GMT 47.644817 12.515681 31,025 139 496 0
2019-09-19 14:55:56 GMT 47.650780 12.508357 31,025 140 495 0
2019-09-19 14:55:53 GMT 47.658459 12.498850 31,025 134 492 0
2019-09-19 14:55:49 GMT 47.662697 12.493638 31,025 138 494 0
2019-09-19 14:55:45 GMT 47.669678 12.485069 31,025 140 495 0
2019-09-19 14:55:42 GMT 47.675262 12.478145 31,025 140 495 0
2019-09-19 14:55:39 GMT 47.684967 12.466187 31,025 140 494 0
2019-09-19 14:55:33 GMT 47.692905 12.456383 31,025 139 495 0
2019-09-19 14:55:30 GMT 47.698261 12.449763 31,025 139 495 0
2019-09-19 14:55:27 GMT 47.702496 12.444341 31,025 138 494 0
2019-09-19 14:55:22 GMT 47.710922 12.433365 31,025 137 494 0
2019-09-19 14:55:19 GMT 47.715904 12.426734 31,025 136 493 0
2019-09-19 14:55:13 GMT 47.725262 12.413776 31,025 136 492 0
2019-09-19 14:55:10 GMT 47.731018 12.405556 31,025 135 493 0
2019-09-19 14:55:07 GMT 47.734989 12.399761 31,025 135 493 0
2019-09-19 14:55:04 GMT 47.741089 12.390747 31,025 134 492 -64
2019-09-19 14:55:01 GMT 47.749794 12.377718 31,025 134 493 0
2019-09-19 14:54:58 GMT 47.755379 12.369408 31,025 134 491 0
2019-09-19 14:54:55 GMT 47.755379 12.369408 31,025 134 493 0
2019-09-19 14:54:51 GMT 47.760269 12.362084 31,025 134 492 0
2019-09-19 14:54:48 GMT 47.770660 12.346436 31,025 134 492 0
2019-09-19 14:54:45 GMT 47.770660 12.346436 31,025 134 492 0
2019-09-19 14:54:42 GMT 47.775352 12.339407 31,025 134 492 0
2019-09-19 14:54:39 GMT 47.780800 12.331238 31,025 134 492 0
2019-09-19 14:54:34 GMT 47.787460 12.321236 31,025 134 493 0
2019-09-19 14:54:31 GMT 47.793869 12.311554 31,025 134 493 0
2019-09-19 14:54:27 GMT 47.800278 12.301872 31,025 134 493 0
2019-09-19 14:54:24 GMT 47.810211 12.286972 31,025 134 494 0
2019-09-19 14:54:21 GMT 47.810211 12.286972 31,025 134 494 0
2019-09-19 14:54:17 GMT 47.820274 12.271869 31,025 135 493 0
2019-09-19 14:54:14 GMT 47.825813 12.263489 31,025 134 494 0
2019-09-19 14:54:11 GMT 47.829723 12.257643 31,025 134 494 0
2019-09-19 14:54:08 GMT 47.835217 12.249404 31,025 134 493 -64
2019-09-19 14:54:05 GMT 47.835217 12.249404 31,025 135 493 0
2019-09-19 14:54:01 GMT 47.840431 12.241516 31,025 134 494 0
2019-09-19 14:53:58 GMT 47.847366 12.231023 31,025 134 494 0
2019-09-19 14:53:55 GMT 47.850723 12.226067 31,025 134 494 0
2019-09-19 14:53:52 GMT 47.856171 12.217827 31,025 134 494 0
2019-09-19 14:53:49 GMT 47.860062 12.211922 31,025 134 492 0
2019-09-19 14:53:46 GMT 47.866825 12.201726 31,025 134 493 0
2019-09-19 14:53:43 GMT 47.870041 12.196867 31,025 134 493 0
2019-09-19 14:53:40 GMT 47.876221 12.187477 31,025 134 493 0
2019-09-19 14:53:37 GMT 47.886192 12.172429 31,025 134 491 0
2019-09-19 14:53:34 GMT 47.886192 12.172429 31,025 135 493 0
2019-09-19 14:53:31 GMT 47.889542 12.167358 31,025 134 492 0
2019-09-19 14:53:25 GMT 47.898853 12.153273 31,025 134 492 0
2019-09-19 14:53:22 GMT 47.903835 12.145808 31,025 134 492 0
2019-09-19 14:53:18 GMT 47.910305 12.136019 31,025 134 492 0
2019-09-19 14:53:14 GMT 47.917923 12.124512 31,025 134 492 0
2019-09-19 14:53:11 GMT 47.921127 12.119637 31,025 134 492 0
2019-09-19 14:53:08 GMT 47.925980 12.112289 31,025 134 493 -64
2019-09-19 14:53:05 GMT 47.936508 12.096359 31,025 134 492 0
2019-09-19 14:53:02 GMT 47.936508 12.096359 31,025 134 492 0
2019-09-19 14:52:59 GMT 47.941177 12.089287 31,025 134 492 0
2019-09-19 14:52:55 GMT 47.947266 12.080017 31,025 134 491 0
2019-09-19 14:52:52 GMT 47.956879 12.065460 31,025 134 491 0
2019-09-19 14:52:49 GMT 47.956879 12.065460 31,025 134 490 0
2019-09-19 14:52:46 GMT 47.962921 12.056328 31,025 134 490 0
2019-09-19 14:52:43 GMT 47.966949 12.050148 31,025 134 490 0
2019-09-19 14:52:38 GMT 47.975601 12.037033 31,025 134 491 0
2019-09-19 14:52:35 GMT 47.978832 12.032142 31,025 134 491 0
2019-09-19 14:52:31 GMT 47.986450 12.020554 31,025 134 491 0
2019-09-19 14:52:28 GMT 47.989864 12.015381 31,025 134 491 0
2019-09-19 14:52:25 GMT 47.994965 12.007645 31,025 134 491 0
2019-09-19 14:52:20 GMT 48.002060 11.996864 31,025 134 491 0
2019-09-19 14:52:16 GMT 48.009232 11.985943 31,025 134 490 0
2019-09-19 14:52:10 GMT 48.017097 11.973971 31,025 134 490 64
2019-09-19 14:52:07 GMT 48.023193 11.964675 31,025 134 490 128
2019-09-19 14:52:04 GMT 48.026592 11.959463 31,000 134 490 192
2019-09-19 14:52:01 GMT 48.032822 11.950035 31,000 134 490 128
2019-09-19 14:51:58 GMT 48.037308 11.943169 31,000 134 490 192
2019-09-19 14:51:55 GMT 48.042114 11.935822 30,975 134 490 256
2019-09-19 14:51:51 GMT 48.053177 11.918969 30,900 134 490 896
2019-09-19 14:51:48 GMT 48.059551 11.909180 30,850 134 490 896
2019-09-19 14:51:44 GMT 48.059551 11.909180 30,900 134 490 896
2019-09-19 14:51:40 GMT 48.065781 11.899704 30,650 134 489 960
2019-09-19 14:51:37 GMT 48.076447 11.883362 30,675 134 489 960
2019-09-19 14:51:33 GMT 48.076447 11.883362 30,725 134 489 960
2019-09-19 14:51:30 GMT 48.082737 11.873826 30,650 134 489 960
2019-09-19 14:51:23 GMT 48.092651 11.858643 30,575 134 489 960
2019-09-19 14:51:20 GMT 48.098831 11.849236 30,475 134 489 1024
2019-09-19 14:51:17 GMT 48.101807 11.844704 30,450 134 489 1024
2019-09-19 14:51:14 GMT 48.106705 11.837219 30,350 134 488 1088
2019-09-19 14:51:11 GMT 48.111420 11.829941 30,350 134 488 1088
2019-09-19 14:51:07 GMT 48.117512 11.820655 30,275 134 488 1088
2019-09-19 14:51:04 GMT 48.122166 11.813472 30,200 134 487 1088
2019-09-19 14:51:01 GMT 48.126865 11.806288 30,175 134 487 1088
2019-09-19 14:50:57 GMT 48.139809 11.786499 30,075 134 487 1024
2019-09-19 14:50:54 GMT 48.139809 11.786499 30,025 134 488 1024
2019-09-19 14:50:51 GMT 48.143600 11.780640 29,975 134 487 960
2019-09-19 14:50:47 GMT 48.149536 11.771569 29,950 134 487 960
2019-09-19 14:50:44 GMT 48.159714 11.755920 29,825 134 487 960
2019-09-19 14:50:40 GMT 48.159714 11.755920 29,675 134 489 960
2019-09-19 14:50:36 GMT 48.166622 11.745252 29,750 134 489 1024
2019-09-19 14:50:33 GMT 48.172302 11.736568 29,725 134 489 960
2019-09-19 14:50:30 GMT 48.177608 11.728411 29,650 134 487 960
2019-09-19 14:50:27 GMT 48.182281 11.721215 29,575 134 487 960
2019-09-19 14:50:24 GMT 48.186874 11.714100 29,550 134 488 960
2019-09-19 14:50:20 GMT 48.192673 11.705228 29,475 134 487 960
2019-09-19 14:50:16 GMT 48.198166 11.696777 29,425 134 489 960
2019-09-19 14:50:13 GMT 48.202793 11.689598 29,125 134 487 1024
2019-09-19 14:50:10 GMT 48.207687 11.682058 29,325 134 488 1024
2019-09-19 14:50:07 GMT 48.212494 11.674593 29,300 134 488 1024
2019-09-19 14:50:04 GMT 48.216434 11.668565 29,275 134 488 1024
2019-09-19 14:50:01 GMT 48.221603 11.660579 29,150 134 487 960
2019-09-19 14:49:58 GMT 48.226410 11.653114 29,125 134 487 896
2019-09-19 14:49:55 GMT 48.230957 11.646086 29,100 134 487 768
2019-09-19 14:49:52 GMT 48.235474 11.639099 29,025 134 487 512
2019-09-19 14:49:49 GMT 48.240189 11.631845 29,025 134 487 128
2019-09-19 14:49:46 GMT 48.245899 11.622957 29,025 134 486 0
2019-09-19 14:49:43 GMT 48.251175 11.614873 29,025 134 486 0
2019-09-19 14:49:39 GMT 48.256142 11.607200 29,025 134 486 -64
2019-09-19 14:49:35 GMT 48.262939 11.596720 29,025 134 486 0
2019-09-19 14:49:32 GMT 48.266758 11.590865 29,025 134 485 0
2019-09-19 14:49:29 GMT 48.277325 11.574530 29,025 134 485 0
2019-09-19 14:49:26 GMT 48.277325 11.574530 29,025 134 485 0
2019-09-19 14:49:23 GMT 48.285278 11.562195 29,025 134 485 0
2019-09-19 14:49:17 GMT 48.291595 11.552406 29,025 134 485 0
2019-09-19 14:49:13 GMT 48.297867 11.542757 29,025 134 485 0
2019-09-19 14:49:10 GMT 48.301483 11.537123 29,025 134 485 -64
2019-09-19 14:49:07 GMT 48.305630 11.530730 29,025 134 485 0
2019-09-19 14:49:04 GMT 48.311958 11.520900 29,025 134 485 0
2019-09-19 14:48:58 GMT 48.320343 11.507897 29,025 134 485 0
2019-09-19 14:48:55 GMT 48.325737 11.499505 29,025 134 485 0
2019-09-19 14:48:52 GMT 48.329601 11.493506 29,025 134 485 0
2019-09-19 14:48:49 GMT 48.333847 11.486981 29,025 134 485 0
2019-09-19 14:48:46 GMT 48.340073 11.477332 29,025 134 485 0
2019-09-19 14:48:42 GMT 48.349731 11.462261 29,000 134 486 64
2019-09-19 14:48:36 GMT 48.354446 11.455008 29,000 134 486 128
2019-09-19 14:48:33 GMT 48.360558 11.445513 29,000 134 486 128
2019-09-19 14:48:29 GMT 48.365959 11.437129 29,000 134 486 192
2019-09-19 14:48:26 GMT 48.370834 11.429514 29,000 134 486 256
2019-09-19 14:48:23 GMT 48.374619 11.423685 29,000 133 485 576
2019-09-19 14:48:20 GMT 48.379459 11.416096 28,975 133 485 512
2019-09-19 14:48:17 GMT 48.383652 11.409583 28,950 133 485 640
2019-09-19 14:48:14 GMT 48.388351 11.402291 28,725 133 483 1024
2019-09-19 14:48:11 GMT 48.394180 11.393174 28,850 133 484 1024
2019-09-19 14:48:08 GMT 48.397942 11.387257 28,700 133 483 1024
2019-09-19 14:48:05 GMT 48.403473 11.378667 28,750 133 483 1024
2019-09-19 14:48:02 GMT 48.408234 11.371272 28,625 133 483 1024
2019-09-19 14:47:58 GMT 48.413589 11.362892 28,625 133 483 1024
2019-09-19 14:47:55 GMT 48.418144 11.355743 28,500 133 483 1024
2019-09-19 14:47:52 GMT 48.423359 11.347648 28,525 133 481 1024
2019-09-19 14:47:49 GMT 48.428925 11.338947 28,475 133 480 1088
2019-09-19 14:47:45 GMT 48.433506 11.331819 28,425 133 480 1088
2019-09-19 14:47:42 GMT 48.437881 11.324953 28,300 133 480 1088
2019-09-19 14:47:39 GMT 48.441833 11.318735 28,325 133 479 1088
2019-09-19 14:47:36 GMT 48.448635 11.308112 28,225 133 479 1088
2019-09-19 14:47:33 GMT 48.451756 11.303197 28,225 133 479 1088
2019-09-19 14:47:30 GMT 48.457214 11.294650 28,150 133 478 1024
2019-09-19 14:47:25 GMT 48.465397 11.281875 28,050 133 478 1024
2019-09-19 14:47:22 GMT 48.469585 11.275370 28,000 133 477 1024
2019-09-19 14:47:18 GMT 48.475681 11.265684 27,900 133 476 1216
2019-09-19 14:47:14 GMT 48.480896 11.257589 27,850 133 476 1216
2019-09-19 14:47:11 GMT 48.486622 11.248627 27,775 133 475 1152
2019-09-19 14:47:07 GMT 48.491272 11.241267 27,575 133 475 1024
2019-09-19 14:47:04 GMT 48.497177 11.232042 27,650 133 473 960
2019-09-19 14:47:01 GMT 48.501007 11.226076 27,550 133 474 960
2019-09-19 14:46:57 GMT 48.507896 11.215234 27,525 133 473 960
2019-09-19 14:46:54 GMT 48.510956 11.210421 27,475 133 472 896
2019-09-19 14:46:51 GMT 48.515949 11.202585 27,450 133 472 896
2019-09-19 14:46:48 GMT 48.519676 11.196803 27,375 133 471 896
2019-09-19 14:46:45 GMT 48.524982 11.188491 27,375 133 471 960
2019-09-19 14:46:41 GMT 48.532059 11.177360 27,125 133 467 1344
2019-09-19 14:46:38 GMT 48.535767 11.171476 27,225 133 469 1152
2019-09-19 14:46:35 GMT 48.540207 11.164574 27,100 133 468 1280
2019-09-19 14:46:32 GMT 48.545837 11.155677 27,100 133 468 1280
2019-09-19 14:46:28 GMT 48.551147 11.147320 27,025 133 468 1344
2019-09-19 14:46:25 GMT 48.556229 11.139292 26,900 133 468 1344
2019-09-19 14:46:19 GMT 48.564468 11.126333 26,825 133 467 1344
2019-09-19 14:46:16 GMT 48.568371 11.120188 26,750 133 467 1344
2019-09-19 14:46:12 GMT 48.574310 11.110840 26,600 133 466 1216
2019-09-19 14:46:09 GMT 48.579029 11.103347 26,275 133 459 1280
2019-09-19 14:46:05 GMT 48.588432 11.088602 26,525 133 466 1216
2019-09-19 14:45:59 GMT 48.593552 11.080507 26,375 133 464 1088
2019-09-19 14:45:56 GMT 48.598114 11.073303 26,325 133 464 1088
2019-09-19 14:45:53 GMT 48.602509 11.066402 26,325 133 464 1088
2019-09-19 14:45:50 GMT 48.607086 11.059148 26,275 133 463 1024
2019-09-19 14:45:47 GMT 48.612129 11.051162 26,225 133 463 1088
2019-09-19 14:45:44 GMT 48.615524 11.045813 25,850 133 460 1216
2019-09-19 14:45:41 GMT 48.620224 11.038372 26,075 133 461 1152
2019-09-19 14:45:37 GMT 48.626587 11.028302 25,875 133 459 1280
2019-09-19 14:45:33 GMT 48.632401 11.019146 25,875 133 459 1280
2019-09-19 14:45:30 GMT 48.636337 11.012878 25,850 133 459 1280
2019-09-19 14:45:27 GMT 48.640457 11.006399 25,800 133 458 1280
2019-09-19 14:45:24 GMT 48.646484 10.996809 25,700 133 458 1280
2019-09-19 14:45:20 GMT 48.650620 10.990202 25,650 133 457 1344
2019-09-19 14:45:17 GMT 48.655560 10.982425 25,600 133 456 1344
2019-09-19 14:45:14 GMT 48.664810 10.967806 25,475 133 456 1344
2019-09-19 14:45:11 GMT 48.664810 10.967806 25,300 133 456 1344
2019-09-19 14:45:07 GMT 48.669621 10.960091 25,025 133 449 1216
2019-09-19 14:45:03 GMT 48.676620 10.949003 25,275 133 454 1280
2019-09-19 14:44:59 GMT 48.681072 10.941877 25,200 133 454 1216
2019-09-19 14:44:54 GMT 48.688660 10.929879 25,125 133 454 1216
2019-09-19 14:44:51 GMT 48.693970 10.921396 25,025 133 452 1216
2019-09-19 14:44:48 GMT 48.696854 10.916818 24,925 133 452 1216
2019-09-19 14:44:45 GMT 48.706024 10.902268 24,850 133 451 1216
2019-09-19 14:44:39 GMT 48.710957 10.894462 24,725 97 400 1536
2019-09-19 14:44:34 GMT 48.717567 10.883982 24,675 133 449 1216
2019-09-19 14:44:31 GMT 48.727577 10.868081 24,600 133 448 1216
2019-09-19 14:44:28 GMT 48.727577 10.868081 24,550 133 448 1216
2019-09-19 14:44:24 GMT 48.733536 10.858540 24,525 133 447 1216
2019-09-19 14:44:21 GMT 48.742104 10.844951 24,375 133 445 1280
2019-09-19 14:44:17 GMT 48.742104 10.844951 24,350 133 445 1216
2019-09-19 14:44:13 GMT 48.746944 10.837218 24,250 133 443 1216
2019-09-19 14:44:09 GMT 48.752838 10.827871 24,125 133 442 1536
2019-09-19 14:44:05 GMT 48.759838 10.816691 24,025 133 442 1600
2019-09-19 14:44:02 GMT 48.763004 10.811559 23,925 132 442 1600
2019-09-19 14:43:59 GMT 48.766495 10.805921 23,100 131 441 1600
2019-09-19 14:43:55 GMT 48.772980 10.795124 23,800 130 440 1536
2019-09-19 14:43:52 GMT 48.781487 10.779756 23,700 122 437 1408
2019-09-19 14:43:48 GMT 48.781487 10.779756 23,650 126 439 1472
2019-09-19 14:43:43 GMT 48.788326 10.764361 23,275 120 437 1408
2019-09-19 14:43:39 GMT 48.791168 10.756699 23,450 117 434 1344
2019-09-19 14:43:34 GMT 48.797928 10.733361 23,300 109 430 1088
2019-09-19 14:43:28 GMT 48.800339 10.722295 23,200 105 426 896
2019-09-19 14:43:23 GMT 48.802620 10.708707 23,150 102 423 768
2019-09-19 14:43:17 GMT 48.804657 10.691810 23,050 97 416 1024
2019-09-19 14:43:12 GMT 48.805878 10.677699 23,000 97 416 1024
2019-09-19 14:43:09 GMT 48.806763 10.667580 22,900 97 415 1088
2019-09-19 14:43:06 GMT 48.807320 10.661003 22,850 97 411 1152
2019-09-19 14:43:01 GMT 48.808731 10.644132 22,800 97 412 1152
2019-09-19 14:42:58 GMT 48.809830 10.630751 21,900 97 409 1280
2019-09-19 14:42:55 GMT 48.809830 10.630751 22,700 97 410 1216
2019-09-19 14:42:50 GMT 48.811295 10.613708 22,575 97 408 1344
2019-09-19 14:42:46 GMT 48.812256 10.602159 22,450 97 407 1472
2019-09-19 14:42:42 GMT 48.812988 10.593567 22,400 97 406 1472
2019-09-19 14:42:39 GMT 48.813976 10.582364 22,300 97 404 1472
2019-09-19 14:42:34 GMT 48.814774 10.572721 22,125 97 404 1472
2019-09-19 14:42:31 GMT 48.815746 10.561692 22,100 97 404 1472
2019-09-19 14:42:28 GMT 48.816353 10.554681 22,000 97 403 1472
2019-09-19 14:42:24 GMT 48.817375 10.543189 21,975 97 402 1472
2019-09-19 14:42:21 GMT 48.818024 10.536030 21,925 97 401 1472
2019-09-19 14:42:18 GMT 48.819798 10.516084 21,775 97 400 1536
2019-09-19 14:42:15 GMT 48.820541 10.508000 21,600 97 399 1536
2019-09-19 14:42:12 GMT 48.820541 10.508000 21,675 97 399 1536
2019-09-19 14:42:07 GMT 48.821503 10.497014 21,500 97 398 1600
2019-09-19 14:42:04 GMT 48.822403 10.487173 21,425 97 397 1600
2019-09-19 14:42:01 GMT 48.823151 10.478716 20,975 97 397 1600
2019-09-19 14:41:58 GMT 48.823849 10.470621 21,300 97 397 1600
2019-09-19 14:41:55 GMT 48.824524 10.462576 21,250 97 396 1600
2019-09-19 14:41:51 GMT 48.825714 10.449195 21,100 97 395 1600
2019-09-19 14:41:48 GMT 48.826080 10.444746 21,000 97 394 1600
2019-09-19 14:41:45 GMT 48.826813 10.435955 20,925 97 394 1600
2019-09-19 14:41:42 GMT 48.827637 10.426659 20,900 97 393 1664
2019-09-19 14:41:39 GMT 48.828644 10.415545 20,775 97 393 1664
2019-09-19 14:41:36 GMT 48.828968 10.411425 20,775 97 392 1664
2019-09-19 14:41:33 GMT 48.829762 10.403041 20,675 97 392 1728
2019-09-19 14:41:30 GMT 48.830566 10.394052 20,600 97 390 1856
2019-09-19 14:41:27 GMT 48.831158 10.387501 20,500 97 391 1792
2019-09-19 14:41:24 GMT 48.832272 10.375141 20,325 98 390 1984
2019-09-19 14:41:20 GMT 48.834320 10.353628 20,150 98 391 1984
2019-09-19 14:41:16 GMT 48.834320 10.353628 20,100 98 391 1984
2019-09-19 14:41:13 GMT 48.834824 10.348135 20,025 98 390 1984
2019-09-19 14:41:10 GMT 48.835438 10.341676 19,975 98 391 1984
2019-09-19 14:41:07 GMT 48.837112 10.324050 19,725 97 390 2048
2019-09-19 14:41:01 GMT 48.837936 10.314683 19,475 97 390 2048
2019-09-19 14:40:58 GMT 48.838837 10.304525 19,500 97 390 2048
2019-09-19 14:40:54 GMT 48.840141 10.288479 19,300 97 388 1984
2019-09-19 14:40:51 GMT 48.840748 10.281324 19,200 96 388 1984
2019-09-19 14:40:43 GMT 48.841965 10.266442 19,050 96 388 1984
2019-09-19 14:40:40 GMT 48.843121 10.251545 18,850 96 387 1984
2019-09-19 14:40:37 GMT 48.844006 10.240631 18,800 96 387 1984
2019-09-19 14:40:33 GMT 48.844006 10.240631 18,725 96 387 1984
2019-09-19 14:40:30 GMT 48.845261 10.224802 18,550 96 387 2048
2019-09-19 14:40:23 GMT 48.846268 10.211581 18,400 96 386 2048
2019-09-19 14:40:20 GMT 48.846844 10.204492 17,225 96 386 2048
2019-09-19 14:40:17 GMT 48.847588 10.194807 18,225 96 386 2048
2019-09-19 14:40:14 GMT 48.848007 10.189603 18,100 96 386 2048
2019-09-19 14:40:11 GMT 48.848740 10.180242 17,975 96 385 2048
2019-09-19 14:40:08 GMT 48.849197 10.174185 17,825 96 385 2048
2019-09-19 14:40:05 GMT 48.849884 10.164959 17,800 96 385 2048
2019-09-19 14:40:01 GMT 48.851257 10.146578 17,550 96 385 2112
2019-09-19 14:39:58 GMT 48.851257 10.146578 17,500 95 384 2048
2019-09-19 14:39:55 GMT 48.851871 10.138285 17,425 95 383 1984
2019-09-19 14:39:52 GMT 48.852291 10.131129 16,650 90 381 1792
2019-09-19 14:39:48 GMT 48.852768 10.118197 17,250 90 381 1792
2019-09-19 14:39:45 GMT 48.852722 10.112070 17,225 88 379 1792
2019-09-19 14:39:42 GMT 48.852337 10.102651 17,100 83 376 1600
2019-09-19 14:39:39 GMT 48.851639 10.094123 17,000 78 371 1408
2019-09-19 14:39:35 GMT 48.849266 10.076487 16,900 75 368 1472
2019-09-19 14:39:32 GMT 48.849266 10.076487 16,700 74 367 1536
2019-09-19 14:39:29 GMT 48.848103 10.069982 16,750 74 366 1536
2019-09-19 14:39:25 GMT 48.845856 10.057561 16,650 74 365 1536
2019-09-19 14:39:19 GMT 48.843678 10.045768 16,525 74 362 1536
2019-09-19 14:39:16 GMT 48.842094 10.037384 16,450 74 361 1600
2019-09-19 14:39:12 GMT 48.840088 10.026574 16,300 74 358 1664
2019-09-19 14:39:09 GMT 48.839218 10.021714 16,100 74 358 1664
2019-09-19 14:39:06 GMT 48.837582 10.013098 16,150 74 357 1664
2019-09-19 14:39:03 GMT 48.836517 10.007277 16,125 74 355 1664
2019-09-19 14:39:00 GMT 48.834740 9.997703 15,900 74 352 1664
2019-09-19 14:38:55 GMT 48.832554 9.985849 15,850 74 352 1664
2019-09-19 14:38:52 GMT 48.830273 9.973418 15,700 74 348 1856
2019-09-19 14:38:49 GMT 48.830273 9.973418 15,700 74 348 1856
2019-09-19 14:38:44 GMT 48.827728 9.959599 15,525 74 347 2048
2019-09-19 14:38:36 GMT 48.824547 9.942410 15,225 74 345 2048
2019-09-19 14:38:32 GMT 48.823105 9.934739 15,125 74 344 2112
2019-09-19 14:38:29 GMT 48.821194 9.924196 14,950 74 343 2176
2019-09-19 14:38:23 GMT 48.818821 9.911330 14,800 74 342 2304
2019-09-19 14:38:17 GMT 48.816513 9.899034 14,500 74 342 2496
2019-09-19 14:38:14 GMT 48.815235 9.892032 14,500 74 342 2496
2019-09-19 14:38:11 GMT 48.813698 9.883720 14,375 74 342 2496
2019-09-19 14:38:08 GMT 48.812164 9.875582 14,200 74 342 2496
2019-09-19 14:38:02 GMT 48.809509 9.861241 13,875 74 341 2560
2019-09-19 14:37:54 GMT 48.806484 9.844906 13,600 74 341 2560
2019-09-19 14:37:51 GMT 48.805134 9.837534 13,550 74 341 2560
2019-09-19 14:37:48 GMT 48.804016 9.831566 13,350 74 340 2560
2019-09-19 14:37:43 GMT 48.800400 9.812129 13,100 74 340 2624
2019-09-19 14:37:39 GMT 48.800400 9.812129 12,925 74 339 2816
2019-09-19 14:37:34 GMT 48.798340 9.801002 12,750 74 339 2880
2019-09-19 14:37:31 GMT 48.796921 9.793396 12,600 74 339 3008
2019-09-19 14:37:28 GMT 48.795456 9.785508 12,600 74 339 3008
2019-09-19 14:37:25 GMT 48.793945 9.777339 12,400 74 340 3328
2019-09-19 14:37:22 GMT 48.793076 9.772621 12,275 74 340 3392
2019-09-19 14:37:19 GMT 48.791821 9.765762 12,000 74 342 3456
2019-09-19 14:37:16 GMT 48.790329 9.757883 11,950 74 342 3328
2019-09-19 14:37:12 GMT 48.788887 9.750005 11,650 74 343 3008
2019-09-19 14:37:09 GMT 48.786255 9.735859 11,425 74 343 2496
2019-09-19 14:37:02 GMT 48.784184 9.724707 11,275 74 341 1728
2019-09-19 14:36:59 GMT 48.783051 9.718604 11,200 74 341 1792
2019-09-19 14:36:56 GMT 48.781998 9.713041 11,075 74 339 1472
2019-09-19 14:36:53 GMT 48.780273 9.703891 11,075 74 337 1280
2019-09-19 14:36:50 GMT 48.778061 9.691843 10,550 74 326 1024
2019-09-19 14:36:44 GMT 48.776413 9.683181 10,875 74 326 1024
2019-09-19 14:36:41 GMT 48.775478 9.678088 10,650 74 312 960
2019-09-19 14:36:38 GMT 48.774223 9.671510 10,725 74 320 1024
2019-09-19 14:36:32 GMT 48.772156 9.660504 10,650 74 311 960
2019-09-19 14:36:29 GMT 48.770779 9.653079 10,650 74 310 896
2019-09-19 14:36:26 GMT 48.769455 9.645785 10,550 74 301 960
2019-09-19 14:36:19 GMT 48.766937 9.632474 10,475 74 297 1024
2019-09-19 14:36:16 GMT 48.765240 9.623373 10,350 74 289 1728
2019-09-19 14:36:13 GMT 48.764923 9.621699 10,400 74 291 1664
2019-09-19 14:36:10 GMT 48.763657 9.614989 10,300 74 289 1856
2019-09-19 14:36:07 GMT 48.762543 9.609093 10,175 74 286 2368
2019-09-19 14:36:02 GMT 48.759792 9.594317 9,850 74 283 2560
2019-09-19 14:35:56 GMT 48.757648 9.582752 9,675 74 283 2624
2019-09-19 14:35:53 GMT 48.756393 9.576103 9,525 74 281 2688
2019-09-19 14:35:50 GMT 48.756393 9.576103 9,475 74 281 2688
2019-09-19 14:35:44 GMT 48.754112 9.563888 9,250 74 280 2624
2019-09-19 14:35:40 GMT 48.752903 9.557310 8,850 74 278 2432
2019-09-19 14:35:37 GMT 48.751602 9.550429 8,925 74 277 2368
2019-09-19 14:35:34 GMT 48.750366 9.543880 8,775 74 276 2368
2019-09-19 14:35:31 GMT 48.748856 9.535922 8,650 73 275 2496
2019-09-19 14:35:24 GMT 48.747036 9.526375 8,375 74 273 2816
2019-09-19 14:35:21 GMT 48.746014 9.520954 8,250 74 272 2816
2019-09-19 14:35:18 GMT 48.744942 9.515317 8,150 74 272 2880
2019-09-19 14:35:13 GMT 48.743359 9.507005 7,850 74 271 2944
2019-09-19 14:35:09 GMT 48.741962 9.499560 7,675 74 271 2816
2019-09-19 14:35:06 GMT 48.741211 9.495357 7,575 74 271 2816
2019-09-19 14:35:03 GMT 48.739014 9.483666 7,200 74 269 2688
2019-09-19 14:34:57 GMT 48.737679 9.476648 7,075 73 268 2688
2019-09-19 14:34:52 GMT 48.736423 9.470143 6,975 73 267 2880
2019-09-19 14:34:49 GMT 48.735073 9.462987 6,675 73 266 3328
2019-09-19 14:34:46 GMT 48.733383 9.454087 6,450 73 267 3200
2019-09-19 14:34:40 GMT 48.732372 9.448820 6,300 73 267 3200
2019-09-19 14:34:37 GMT 48.731186 9.442538 5,900 73 267 2432
2019-09-19 14:34:32 GMT 48.729355 9.433101 5,900 74 265 2432
2019-09-19 14:34:28 GMT 48.727890 9.425354 5,625 74 257 3392
2019-09-19 14:34:23 GMT 48.726471 9.417819 5,475 73 261 2816
2019-09-19 14:34:17 GMT 48.724365 9.406610 5,125 74 257 3392
2019-09-19 14:34:14 GMT 48.723541 9.402325 5,125 74 257 3392
2019-09-19 14:34:09 GMT 48.721573 9.391793 4,650 74 256 3392
2019-09-19 14:34:06 GMT 48.720840 9.387606 4,175 74 257 3712
2019-09-19 14:34:01 GMT 48.719383 9.379939 4,300 74 257 3584
2019-09-19 14:33:56 GMT 48.717407 9.369436 3,825 73 257 2752
2019-09-19 14:33:50 GMT 48.715473 9.359195 3,725 73 256 2368
2019-09-19 14:33:47 GMT 48.714218 9.352835 3,600 73 251 1792
2019-09-19 14:33:42 GMT 48.713192 9.347703 3,525 73 250 1792
2019-09-19 14:33:37 GMT 48.711376 9.338740 3,300 73 242 2112
2019-09-19 14:33:26 GMT 48.707932 9.321321 2,950 73 229 1792
2019-09-19 14:33:15 GMT 48.704861 9.304553 2,775 76 196 1024
2019-09-19 14:33:03 GMT 48.702206 9.288145 2,425 75 179 1280
2019-09-19 14:32:55 GMT 48.700516 9.278095 2,500 75 180 1152
2019-09-19 14:32:52 GMT 48.699879 9.274485 2,425 75 178 1408
2019-09-19 14:32:44 GMT 48.698154 9.265161 2,250 73 169 1280
2019-09-19 14:32:38 GMT 48.696762 9.257953 2,125 73 159 2624
2019-09-19 14:32:34 GMT 48.695923 9.253669 1,950 73 159 2624
2019-09-19 14:32:29 GMT 48.694839 9.247953 1,750 73 160 2624
2019-09-19 14:32:23 GMT 48.693741 9.242249 1,475 74 161 2688
2019-09-19 14:32:12 GMT 48.691498 9.230488 1,050 73 165 2496
2019-09-19 14:32:02 GMT 48.689171 9.218108 900 73 147 -128
2019-09-19 14:31:50 GMT 48.687405 9.208856 925 74 99 -64
2019-09-19 14:31:40 GMT 48.686337 9.203215 0 73 59
2019-09-19 14:31:25 GMT 48.685867 9.200815 0 73 0
2019-09-19 14:31:19 GMT 48.685867 9.200803 0 73 0
2019-09-19 14:30:58 GMT 48.685867 9.200815 0 73 0
2019-09-19 14:30:45 GMT 48.685776 9.200504 0 132 8
2019-09-19 14:30:36 GMT 48.686062 9.200222 0 163 12
2019-09-19 14:30:26 GMT 48.686520 9.200020 0 163 7
2019-09-19 14:30:15 GMT 48.686729 9.199929 0 163 0
2019-09-19 14:30:05 GMT 48.686741 9.199929 0 163 0
2019-09-19 14:29:45 GMT 48.686737 9.199923 0 163 0
2019-09-19 14:29:35 GMT 48.686741 9.199929 0 163 0
2019-09-19 14:29:20 GMT 48.686737 9.199941 0 163 0
2019-09-19 14:29:13 GMT 48.686737 9.199923 0 163 0
2019-09-19 14:29:02 GMT 48.686737 9.199941 0 163 0
2019-09-19 14:28:51 GMT 48.686737 9.199923 0 163 0
2019-09-19 14:28:40 GMT 48.686783 9.199905 0 163 2
2019-09-19 14:28:31 GMT 48.686867 9.199875 0 165 4
2019-09-19 14:28:21 GMT 48.687057 9.199782 0 165 5
2019-09-19 14:28:10 GMT 48.687252 9.199713 0 171 5
2019-09-19 14:28:00 GMT 48.687485 9.199640 0 182 6
2019-09-19 14:27:48 GMT 48.687729 9.199658 0 194 6
2019-09-19 14:27:39 GMT 48.688042 9.199767 0 210 9
2019-09-19 14:27:26 GMT 48.688347 9.200219 0 253 8
2019-09-19 14:27:16 GMT 48.688442 9.200698 0 239 7
2019-09-19 14:27:07 GMT 48.688591 9.201050 0 182 6
2019-09-19 14:26:56 GMT 48.688866 9.201032 0 163 7
2019-09-19 14:26:43 GMT 48.689117 9.200927 0 163 2

Making use of Plane Finder data

You are free to use the raw flight data, aircraft information and images provided in this report for your own purposes provided the data is correctly attributed to Plane Finder. We ask that you please credit Plane Finder and link to planefinder.net in close proximity to the content.

Optionally one of the following logos (no smaller then 150x24px) can be used and must link to planefinder.net

Embedding the Plane Finder map

You are welcome to embed the Plane Finder playback map on your website to offer visitors a more interactive experience. We suggest using the following HTML code:

<iframe src="//planefinder.net/data/report/EW2672-D-ABHF-7700-squawk-2019-09-19/map" width="800" height="600" seamless="seamless"></iframe>

Where our data comes from

Plane Finder has a global network of data feeds and antenna radars that receive data broadcast directly from aircraft. The primary technologies used are ADS-B and MLAT. We also show feeds from the FAA and a FLARM glider feed.

Click here to find out more about the Plane Finder network.

How we collect our data